Mississippi River Lock and Dam 9
Open river conditions where all gates have been raised completely out of the water currently exist at the following St. Paul District Lock and Dam Locations:
Lock and Dam 10
| Parameter | Latest Value | Date |
|---|---|---|
| Pool (ft) : | 619.65 | 07 May 2026, 10:15 |
| Tailwater (ft) : | 618.60 | 07 May 2026, 10:15 |
| Flow-Out (cfs) : | 68000 | 07 May 2026, 10:15 |
| Air Temp (F) : | 36 | 07 May 2026, 10:15 |
| Water Temp (F) : | 60 | 07 May 2026, 10:15 |
| Wind Speed (mph) : | 131072 | 07 May 2026, 10:15 |
| Wind Dir (deg) : | 0 | 07 May 2026, 10:15 |
| Total 24 hr Precip. (in) : | 0.00 | 06 May 2026, 12:00 |
| Date/Time (UTC) | LockDam_09 Elev ft | LockDam_09-Tailwater Elev ft |
|---|---|---|
| May 7, 2026, 10:15 | 619.65 | 618.60 |
| May 7, 2026, 10:00 | 619.66 | 618.60 |
| May 7, 2026, 09:45 | 619.66 | 618.59 |
| May 7, 2026, 09:30 | 619.66 | 618.59 |
| May 7, 2026, 09:15 | 619.66 | 618.59 |
| May 7, 2026, 09:00 | 619.66 | 618.59 |
| May 7, 2026, 08:45 | 619.66 | 618.59 |
| May 7, 2026, 08:30 | 619.66 | 618.59 |
| May 7, 2026, 08:15 | 619.65 | 618.58 |
| May 7, 2026, 08:00 | 619.65 | 618.59 |
| May 7, 2026, 07:45 | 619.65 | 618.58 |
| May 7, 2026, 07:30 | 619.66 | 618.59 |
| May 7, 2026, 07:15 | 619.66 | 618.59 |
| May 7, 2026, 07:00 | 619.64 | 618.58 |
| May 7, 2026, 06:45 | 619.64 | 618.59 |
| May 7, 2026, 06:30 | 619.65 | 618.58 |
| May 7, 2026, 06:15 | 619.65 | 618.58 |
| May 7, 2026, 06:00 | 619.65 | 618.58 |
| May 7, 2026, 05:45 | 619.65 | 618.59 |
| May 7, 2026, 05:30 | 619.65 | 618.58 |
| May 7, 2026, 05:15 | 619.65 | 618.58 |
| May 7, 2026, 05:00 | 619.64 | 618.59 |
| May 7, 2026, 04:45 | 619.64 | 618.59 |
| May 7, 2026, 04:30 | 619.65 | 618.58 |
| May 7, 2026, 04:15 | 619.64 | 618.58 |
| May 7, 2026, 04:00 | 619.65 | 618.59 |
| May 7, 2026, 03:45 | 619.64 | 618.58 |
| May 7, 2026, 03:30 | 619.65 | 618.59 |
| May 7, 2026, 03:15 | 619.65 | 618.59 |
| May 7, 2026, 03:00 | 619.64 | 618.59 |
| May 7, 2026, 02:45 | 619.64 | 618.59 |
| May 7, 2026, 02:30 | 619.65 | 618.59 |
| May 7, 2026, 02:15 | 619.65 | 618.59 |
| May 7, 2026, 02:00 | 619.64 | 618.59 |
| May 7, 2026, 01:45 | 619.65 | 618.59 |
| May 7, 2026, 01:30 | 619.66 | 618.60 |
| May 7, 2026, 01:15 | 619.66 | 618.61 |
| May 7, 2026, 01:00 | 619.66 | 618.60 |
| May 7, 2026, 00:45 | 619.67 | 618.61 |
| May 7, 2026, 00:30 | 619.65 | 618.61 |
| May 7, 2026, 00:15 | 619.67 | 618.61 |
| May 6, 2026, 24:00 | 619.66 | 618.61 |
| May 6, 2026, 23:45 | 619.66 | 618.61 |
| May 6, 2026, 23:30 | 619.66 | 618.62 |
| May 6, 2026, 23:15 | 619.65 | 618.62 |
| May 6, 2026, 23:00 | 619.67 | 618.61 |
| May 6, 2026, 22:45 | 619.67 | 618.61 |
| May 6, 2026, 22:30 | 619.66 | 618.61 |
| May 6, 2026, 22:15 | 619.67 | 618.62 |
| May 6, 2026, 22:00 | 619.66 | 618.61 |
| May 6, 2026, 21:45 | 619.68 | 618.58 |
| May 6, 2026, 21:30 | 619.66 | 618.62 |
| May 6, 2026, 21:15 | 619.67 | 618.62 |
| May 6, 2026, 21:00 | 619.66 | 618.60 |
| May 6, 2026, 20:45 | 619.66 | 618.61 |
| May 6, 2026, 20:30 | 619.66 | 618.61 |
| May 6, 2026, 20:15 | 619.64 | 618.62 |
| May 6, 2026, 20:00 | 619.65 | 618.60 |
| May 6, 2026, 19:45 | 619.62 | 618.61 |
| May 6, 2026, 19:30 | 619.64 | 618.60 |
| May 6, 2026, 19:15 | 619.64 | 618.59 |
| May 6, 2026, 19:00 | 619.62 | 618.59 |
| May 6, 2026, 18:45 | 619.65 | 618.60 |
| May 6, 2026, 18:30 | 619.64 | 618.61 |
| May 6, 2026, 18:15 | 619.62 | 618.60 |
| May 6, 2026, 18:00 | 619.62 | 618.61 |
| May 6, 2026, 17:45 | 619.62 | 618.61 |
| May 6, 2026, 17:30 | 619.62 | 618.60 |
| May 6, 2026, 17:15 | 619.65 | 618.61 |
| May 6, 2026, 17:00 | 619.66 | 618.62 |
| May 6, 2026, 16:45 | 619.66 | 618.61 |
| May 6, 2026, 16:30 | 619.62 | 618.62 |
| May 6, 2026, 16:15 | 619.66 | 618.62 |
| May 6, 2026, 16:00 | 619.66 | 618.61 |
| May 6, 2026, 15:45 | 619.64 | 618.59 |
| May 6, 2026, 15:30 | 619.65 | 618.60 |
| May 6, 2026, 15:15 | 619.64 | 618.60 |
| May 6, 2026, 15:00 | 619.62 | 618.59 |
| May 6, 2026, 14:45 | 619.64 | 618.58 |
| May 6, 2026, 14:30 | 619.62 | 618.58 |
| May 6, 2026, 14:15 | 619.64 | 618.58 |
| May 6, 2026, 14:00 | 619.62 | 618.58 |
| May 6, 2026, 13:45 | 619.62 | 618.58 |
| May 6, 2026, 13:30 | 619.62 | 618.58 |
| May 6, 2026, 13:15 | 619.61 | 618.58 |
| May 6, 2026, 13:00 | 619.62 | 618.58 |
| May 6, 2026, 12:45 | 619.61 | 618.58 |
| May 6, 2026, 12:30 | 619.60 | 618.58 |
| May 6, 2026, 12:15 | 619.59 | 618.58 |
| May 6, 2026, 12:00 | 619.60 | 618.57 |
| May 6, 2026, 11:45 | 619.60 | 618.57 |
| May 6, 2026, 11:30 | 619.60 | 618.57 |
| May 6, 2026, 11:15 | 619.60 | 618.57 |
| May 6, 2026, 11:00 | 619.59 | 618.56 |
| May 6, 2026, 10:45 | 619.60 | 618.56 |
| May 6, 2026, 10:30 | 619.58 | 618.56 |
| May 6, 2026, 10:15 | 619.58 | 618.56 |
| May 6, 2026, 10:00 | 619.58 | 618.54 |
| May 6, 2026, 09:45 | 619.58 | 618.56 |
| May 6, 2026, 09:30 | 619.59 | 618.56 |
| May 6, 2026, 09:15 | 619.58 | 618.57 |
| May 6, 2026, 09:00 | 619.57 | 618.56 |
| May 6, 2026, 08:45 | 619.58 | 618.56 |
| May 6, 2026, 08:30 | 619.59 | 618.56 |
| May 6, 2026, 08:15 | 619.58 | 618.56 |
| May 6, 2026, 08:00 | 619.56 | 618.54 |
| May 6, 2026, 07:45 | 619.57 | 618.54 |
| May 6, 2026, 07:30 | 619.62 | 618.54 |
| May 6, 2026, 07:15 | 619.57 | 618.53 |
| May 6, 2026, 07:00 | 619.56 | 618.54 |
| May 6, 2026, 06:45 | 619.57 | 618.54 |
| May 6, 2026, 06:30 | 619.58 | 618.56 |
| May 6, 2026, 06:15 | 619.56 | 618.53 |
| May 6, 2026, 06:00 | 619.57 | 618.46 |
| May 6, 2026, 05:45 | 619.56 | 618.54 |
| May 6, 2026, 05:30 | 619.56 | 618.54 |
| May 6, 2026, 05:15 | 619.58 | 618.52 |
| May 6, 2026, 05:00 | 619.58 | 618.54 |
| May 6, 2026, 04:45 | 619.53 | 618.50 |
| May 6, 2026, 04:30 | 619.54 | 618.54 |
| May 6, 2026, 04:15 | 619.56 | 618.53 |
| May 6, 2026, 04:00 | 619.54 | 618.53 |
| May 6, 2026, 03:45 | 619.56 | 618.54 |
| May 6, 2026, 03:30 | 619.61 | 618.53 |
| May 6, 2026, 03:15 | 619.54 | 618.54 |
| May 6, 2026, 03:00 | 619.58 | 618.54 |
| May 6, 2026, 02:45 | 619.54 | 618.51 |
| May 6, 2026, 02:30 | 619.56 | 618.50 |
| May 6, 2026, 02:15 | 619.54 | 618.54 |
| May 6, 2026, 02:00 | 619.54 | 618.54 |
| May 6, 2026, 01:45 | 619.54 | 618.56 |
| May 6, 2026, 01:30 | 619.54 | 618.56 |
| May 6, 2026, 01:15 | 619.56 | 618.54 |
| May 6, 2026, 01:00 | 619.58 | 618.56 |
| May 6, 2026, 00:45 | 619.56 | 618.54 |
| May 6, 2026, 00:30 | 619.56 | 618.54 |
| May 6, 2026, 00:15 | 619.54 | 618.54 |
| May 5, 2026, 24:00 | 619.54 | 618.56 |
| May 5, 2026, 23:45 | 619.54 | 618.56 |
| May 5, 2026, 23:30 | 619.54 | 618.56 |
| May 5, 2026, 23:15 | 619.54 | 618.56 |
| May 5, 2026, 23:00 | 619.54 | 618.56 |
| May 5, 2026, 22:45 | 619.54 | 618.54 |
| May 5, 2026, 22:30 | 619.54 | 618.56 |
| May 5, 2026, 22:15 | 619.56 | 618.52 |
| May 5, 2026, 22:00 | 619.54 | 618.54 |
| May 5, 2026, 21:45 | 619.56 | 618.54 |
| May 5, 2026, 21:30 | 619.54 | 618.54 |
| May 5, 2026, 21:15 | 619.57 | 618.54 |
| May 5, 2026, 21:00 | 619.54 | 618.54 |
| May 5, 2026, 20:45 | 619.54 | 618.53 |
| May 5, 2026, 20:30 | 619.52 | 618.54 |
| May 5, 2026, 20:15 | 619.54 | 618.53 |
| May 5, 2026, 20:00 | 619.54 | 618.53 |
| May 5, 2026, 19:45 | 619.54 | 618.53 |
| May 5, 2026, 19:30 | 619.52 | 618.54 |
| May 5, 2026, 19:15 | 619.54 | 618.53 |
| May 5, 2026, 19:00 | 619.52 | 618.53 |
| May 5, 2026, 18:45 | 619.52 | 618.52 |
| May 5, 2026, 18:30 | 619.52 | 618.53 |
| May 5, 2026, 18:15 | 619.56 | 618.53 |
| May 5, 2026, 18:00 | 619.51 | 618.54 |
| May 5, 2026, 17:45 | 619.53 | 618.52 |
| May 5, 2026, 17:30 | 619.52 | 618.54 |
| May 5, 2026, 17:15 | 619.51 | 618.49 |
| May 5, 2026, 17:00 | 619.48 | 618.50 |
| May 5, 2026, 16:45 | 619.49 | 618.52 |
| May 5, 2026, 16:30 | 619.50 | 618.49 |
| May 5, 2026, 16:15 | 619.51 | 618.53 |
| May 5, 2026, 16:00 | 619.48 | 618.53 |
| May 5, 2026, 15:45 | 619.50 | 618.52 |
| May 5, 2026, 15:30 | 619.50 | 618.53 |
| May 5, 2026, 15:15 | 619.48 | 618.51 |
| May 5, 2026, 15:00 | 619.48 | 618.52 |
| May 5, 2026, 14:45 | 619.49 | 618.50 |
| May 5, 2026, 14:30 | 619.50 | 618.50 |
| May 5, 2026, 14:15 | 619.49 | 618.49 |
| May 5, 2026, 14:00 | 619.49 | 618.48 |
| May 5, 2026, 13:45 | 619.46 | 618.48 |
| May 5, 2026, 13:30 | 619.45 | 618.48 |
| May 5, 2026, 13:15 | 619.45 | 618.48 |
| May 5, 2026, 13:00 | 619.44 | 618.46 |
| May 5, 2026, 12:45 | 619.44 | 618.46 |
| May 5, 2026, 12:30 | 619.44 | 618.45 |
| May 5, 2026, 12:15 | 619.45 | 618.46 |
| May 5, 2026, 12:00 | 619.44 | 618.46 |
| May 5, 2026, 11:45 | 619.44 | 618.46 |
| May 5, 2026, 11:30 | 619.43 | 618.45 |
| May 5, 2026, 11:15 | 619.44 | 618.45 |
| May 5, 2026, 11:00 | 619.44 | 618.46 |
| May 5, 2026, 10:45 | 619.43 | 618.46 |
| May 5, 2026, 10:30 | 619.42 | 618.46 |
| May 5, 2026, 10:15 | 619.43 | 618.46 |
| May 5, 2026, 10:00 | 619.44 | 618.46 |
| May 5, 2026, 09:45 | 619.44 | 618.46 |
| May 5, 2026, 09:30 | 619.44 | 618.46 |
| May 5, 2026, 09:15 | 619.44 | 618.46 |
| May 5, 2026, 09:00 | 619.44 | 618.46 |
| May 5, 2026, 08:45 | 619.44 | 618.48 |
| May 5, 2026, 08:30 | 619.45 | 618.48 |
| May 5, 2026, 08:15 | 619.45 | 618.48 |
| May 5, 2026, 08:00 | 619.45 | 618.49 |
| May 5, 2026, 07:45 | 619.48 | 618.50 |
| May 5, 2026, 07:30 | 619.46 | 618.51 |
| May 5, 2026, 07:15 | 619.48 | 618.52 |
| May 5, 2026, 07:00 | 619.50 | 618.52 |
| May 5, 2026, 06:45 | 619.50 | 618.54 |
| May 5, 2026, 06:30 | 619.52 | 618.54 |
| May 5, 2026, 06:15 | 619.54 | 618.54 |
| May 5, 2026, 06:00 | 619.51 | 618.54 |
| May 5, 2026, 05:45 | 619.52 | 618.54 |
| May 5, 2026, 05:30 | 619.52 | 618.54 |
| May 5, 2026, 05:15 | 619.53 | 618.54 |
| May 5, 2026, 05:00 | 619.52 | 618.53 |
| May 5, 2026, 04:45 | 619.50 | 618.51 |
| May 5, 2026, 04:30 | 619.53 | 618.54 |
| May 5, 2026, 04:15 | 619.52 | 618.54 |
| May 5, 2026, 04:00 | 619.49 | 618.53 |
| May 5, 2026, 03:45 | 619.48 | 618.52 |
| May 5, 2026, 03:30 | 619.48 | 618.51 |
| May 5, 2026, 03:15 | 619.45 | 618.49 |
| May 5, 2026, 03:00 | 619.48 | 618.48 |
| May 5, 2026, 02:45 | 619.45 | 618.45 |
| May 5, 2026, 02:30 | 619.44 | 618.46 |
| May 5, 2026, 02:15 | 619.45 | 618.46 |
| May 5, 2026, 02:00 | 619.45 | 618.48 |
| May 5, 2026, 01:45 | 619.45 | 618.46 |
| May 5, 2026, 01:30 | 619.45 | 618.46 |
| May 5, 2026, 01:15 | 619.45 | 618.37 |
| May 5, 2026, 01:00 | 619.44 | 618.42 |
| May 5, 2026, 00:45 | 619.41 | 618.43 |
| May 5, 2026, 00:30 | 619.42 | 618.48 |
| May 5, 2026, 00:15 | 619.43 | 618.48 |
| May 4, 2026, 24:00 | 619.42 | 618.48 |
| May 4, 2026, 23:45 | 619.40 | 618.49 |
| May 4, 2026, 23:30 | 619.45 | 618.50 |
| May 4, 2026, 23:15 | 619.41 | 618.48 |
| May 4, 2026, 23:00 | 619.44 | 618.49 |
| May 4, 2026, 22:45 | 619.44 | 618.48 |
| May 4, 2026, 22:30 | 619.44 | 618.48 |
| May 4, 2026, 22:15 | 619.44 | 618.48 |
| May 4, 2026, 22:00 | 619.44 | 618.48 |
| May 4, 2026, 21:45 | 619.45 | 618.49 |
| May 4, 2026, 21:30 | 619.42 | 618.49 |
| May 4, 2026, 21:15 | 619.42 | 618.46 |
| May 4, 2026, 21:00 | 619.36 | 618.44 |
| May 4, 2026, 20:45 | 619.34 | 618.44 |
| May 4, 2026, 20:30 | 619.34 | 618.42 |
| May 4, 2026, 20:15 | 619.36 | 618.45 |
| May 4, 2026, 20:00 | 619.36 | 618.44 |
| May 4, 2026, 19:45 | 619.35 | 618.45 |
| May 4, 2026, 19:30 | 619.34 | 618.45 |
| May 4, 2026, 19:15 | 619.32 | 618.44 |
| May 4, 2026, 19:00 | 619.27 | 618.41 |
| May 4, 2026, 18:45 | 619.27 | 618.42 |
| May 4, 2026, 18:30 | 619.28 | 618.44 |
| May 4, 2026, 18:15 | 619.27 | 618.41 |
| May 4, 2026, 18:00 | 619.21 | 618.40 |
| May 4, 2026, 17:45 | 619.20 | 618.41 |
| May 4, 2026, 17:30 | 619.23 | 618.41 |
| May 4, 2026, 17:15 | 619.18 | 618.40 |
| May 4, 2026, 17:00 | 619.15 | 618.40 |
| May 4, 2026, 16:45 | 619.18 | 618.42 |
| May 4, 2026, 16:30 | 619.12 | 618.39 |
| May 4, 2026, 16:15 | 619.14 | 618.41 |
| May 4, 2026, 16:00 | 619.11 | 618.40 |
| May 4, 2026, 15:45 | 619.11 | 618.42 |
| May 4, 2026, 15:30 | 619.09 | 618.42 |
| May 4, 2026, 15:15 | 619.04 | 618.46 |
| May 4, 2026, 15:00 | 619.04 | 618.50 |
| May 4, 2026, 14:45 | 618.99 | 618.54 |
| May 4, 2026, 14:30 | 618.99 | 618.58 |
| May 4, 2026, 14:15 | 618.95 | 618.61 |
| May 4, 2026, 14:00 | 618.96 | 618.62 |
| May 4, 2026, 13:45 | 618.94 | 618.64 |
| May 4, 2026, 13:30 | 618.95 | 618.66 |
| May 4, 2026, 13:15 | 618.96 | 618.66 |
| May 4, 2026, 13:00 | 618.96 | 618.66 |
| May 4, 2026, 12:45 | 618.95 | 618.66 |
| May 4, 2026, 12:30 | 618.96 | 618.66 |
| May 4, 2026, 12:15 | 618.96 | 618.65 |
| May 4, 2026, 12:00 | 618.95 | 618.66 |
| May 4, 2026, 11:45 | 618.95 | 618.65 |
| May 4, 2026, 11:30 | 618.95 | 618.66 |
| May 4, 2026, 11:15 | 618.96 | 618.66 |
| May 4, 2026, 11:00 | 618.96 | 618.66 |
| May 4, 2026, 10:45 | 618.96 | 618.66 |
| May 4, 2026, 10:30 | 618.98 | 618.66 |
| May 4, 2026, 10:15 | 618.96 | 618.66 |
| May 4, 2026, 10:00 | 618.98 | 618.66 |
| May 4, 2026, 09:45 | 618.96 | 618.66 |
| May 4, 2026, 09:30 | 618.96 | 618.66 |
| May 4, 2026, 09:15 | 618.98 | 618.67 |
| May 4, 2026, 09:00 | 618.98 | 618.66 |
| May 4, 2026, 08:45 | 618.98 | 618.66 |
| May 4, 2026, 08:30 | 618.98 | 618.67 |
| May 4, 2026, 08:15 | 618.98 | 618.66 |
| May 4, 2026, 08:00 | 618.98 | 618.66 |
| May 4, 2026, 07:45 | 618.98 | 618.67 |
| May 4, 2026, 07:30 | 618.98 | 618.66 |
| May 4, 2026, 07:15 | 618.99 | 618.67 |
| May 4, 2026, 07:00 | 618.98 | 618.66 |
| May 4, 2026, 06:45 | 618.98 | 618.67 |
| May 4, 2026, 06:30 | 618.99 | 618.66 |
| May 4, 2026, 06:15 | 618.98 | 618.67 |
| May 4, 2026, 06:00 | 618.99 | 618.67 |
| May 4, 2026, 05:45 | 618.99 | 618.67 |
| May 4, 2026, 05:30 | 618.99 | 618.67 |
| May 4, 2026, 05:15 | 619.00 | 618.67 |
| May 4, 2026, 05:00 | 618.99 | 618.67 |
| May 4, 2026, 04:45 | 618.99 | 618.67 |
| May 4, 2026, 04:30 | 619.00 | 618.68 |
| May 4, 2026, 04:15 | 619.00 | 618.67 |
| May 4, 2026, 04:00 | 619.00 | 618.67 |
| May 4, 2026, 03:45 | 619.00 | 618.68 |
| May 4, 2026, 03:30 | 619.00 | 618.68 |
| May 4, 2026, 03:15 | 619.00 | 618.68 |
| May 4, 2026, 03:00 | 619.01 | 618.68 |
| May 4, 2026, 02:45 | 619.00 | 618.68 |
| May 4, 2026, 02:30 | 619.00 | 618.68 |
| May 4, 2026, 02:15 | 619.01 | 618.68 |
| May 4, 2026, 02:00 | 619.00 | 618.68 |
| May 4, 2026, 01:45 | 619.01 | 618.68 |
| May 4, 2026, 01:30 | 619.01 | 618.69 |
| May 4, 2026, 01:15 | 619.02 | 618.69 |
| May 4, 2026, 01:00 | 619.00 | 618.69 |
| May 4, 2026, 00:45 | 619.01 | 618.70 |
| May 4, 2026, 00:30 | 619.10 | 618.70 |
| May 4, 2026, 00:15 | 619.02 | 618.69 |
| May 3, 2026, 24:00 | 619.02 | 618.70 |
| May 3, 2026, 23:45 | 619.03 | 618.70 |
| May 3, 2026, 23:30 | 619.00 | 618.67 |
| May 3, 2026, 23:15 | 619.00 | 618.66 |
| May 3, 2026, 23:00 | 619.02 | 618.70 |
| May 3, 2026, 22:45 | 619.04 | 618.71 |
| May 3, 2026, 22:30 | 619.06 | 618.70 |
| May 3, 2026, 22:15 | 619.04 | 618.71 |
| May 3, 2026, 22:00 | 619.02 | 618.71 |
| May 3, 2026, 21:45 | 619.02 | 618.70 |
| May 3, 2026, 21:30 | 619.02 | 618.70 |
| May 3, 2026, 21:15 | 619.03 | 618.71 |
| May 3, 2026, 21:00 | 619.02 | 618.70 |
| May 3, 2026, 20:45 | 619.04 | 618.70 |
| May 3, 2026, 20:30 | 619.01 | 618.70 |
| May 3, 2026, 20:15 | 619.02 | 618.70 |
| May 3, 2026, 20:00 | 619.01 | 618.70 |
| May 3, 2026, 19:45 | 619.02 | 618.70 |
| May 3, 2026, 19:30 | 619.01 | 618.70 |
| May 3, 2026, 19:15 | 619.02 | 618.70 |
| May 3, 2026, 19:00 | 619.02 | 618.70 |
| May 3, 2026, 18:45 | 619.00 | 618.70 |
| May 3, 2026, 18:30 | 619.01 | 618.70 |
| May 3, 2026, 18:15 | 619.01 | 618.70 |
| May 3, 2026, 18:00 | 619.00 | 618.69 |
| May 3, 2026, 17:45 | 619.00 | 618.69 |
| May 3, 2026, 17:30 | 619.00 | 618.70 |
| May 3, 2026, 17:15 | 619.00 | 618.69 |
| May 3, 2026, 17:00 | 618.98 | 618.68 |
| May 3, 2026, 16:45 | 618.98 | 618.68 |
| May 3, 2026, 16:30 | 618.98 | 618.67 |
| May 3, 2026, 16:15 | 618.96 | 618.67 |
| May 3, 2026, 16:00 | 618.94 | 618.65 |
| May 3, 2026, 15:45 | 618.93 | 618.66 |
| May 3, 2026, 15:30 | 618.93 | 618.65 |
| May 3, 2026, 15:15 | 618.92 | 618.65 |
| May 3, 2026, 15:00 | 618.92 | 618.66 |
| May 3, 2026, 14:45 | 618.94 | 618.67 |
| May 3, 2026, 14:30 | 618.95 | 618.67 |
| May 3, 2026, 14:15 | 618.95 | 618.67 |
| May 3, 2026, 14:00 | 618.96 | 618.69 |
| May 3, 2026, 13:45 | 618.98 | 618.70 |
| May 3, 2026, 13:30 | 618.99 | 618.70 |
| May 3, 2026, 13:15 | 618.99 | 618.70 |
| May 3, 2026, 13:00 | 618.98 | 618.69 |
| May 3, 2026, 12:45 | 618.99 | 618.69 |
| May 3, 2026, 12:30 | 619.00 | 618.69 |
| May 3, 2026, 12:15 | 618.96 | 618.67 |
| May 3, 2026, 12:00 | 618.96 | 618.70 |
| May 3, 2026, 11:45 | 618.95 | 618.69 |
| May 3, 2026, 11:30 | 618.98 | 618.69 |
| May 3, 2026, 11:15 | 619.00 | 618.68 |
| May 3, 2026, 11:00 | 618.96 | 618.69 |
| May 3, 2026, 10:45 | 618.99 | 618.70 |
| May 3, 2026, 10:30 | 619.04 | 618.70 |
| May 3, 2026, 10:15 | 619.04 | 618.70 |
| May 3, 2026, 10:00 | 619.01 | 618.70 |
| May 3, 2026, 09:45 | 619.00 | 618.70 |
| May 3, 2026, 09:30 | 619.00 | 618.70 |
| May 3, 2026, 09:15 | 619.01 | 618.70 |
| May 3, 2026, 09:00 | 619.00 | 618.70 |
| May 3, 2026, 08:45 | 619.01 | 618.70 |
| May 3, 2026, 08:30 | 619.01 | 618.70 |
| May 3, 2026, 08:15 | 619.00 | 618.70 |
| May 3, 2026, 08:00 | 619.02 | 618.70 |
| May 3, 2026, 07:45 | 619.01 | 618.70 |
| May 3, 2026, 07:30 | 619.00 | 618.70 |
| May 3, 2026, 07:15 | 619.01 | 618.70 |
| May 3, 2026, 07:00 | 619.01 | 618.70 |
| May 3, 2026, 06:45 | 619.01 | 618.70 |
| May 3, 2026, 06:30 | 619.02 | 618.71 |
| May 3, 2026, 06:15 | 619.03 | 618.71 |
| May 3, 2026, 06:00 | 619.02 | 618.71 |
| May 3, 2026, 05:45 | 619.02 | 618.71 |
| May 3, 2026, 05:30 | 619.02 | 618.71 |
| May 3, 2026, 05:15 | 619.03 | 618.71 |
| May 3, 2026, 05:00 | 618.95 | 618.71 |
| May 3, 2026, 04:45 | 619.04 | 618.73 |
| May 3, 2026, 04:30 | 619.02 | 618.74 |
| May 3, 2026, 04:15 | 619.04 | 618.74 |
| May 3, 2026, 04:00 | 619.03 | 618.74 |
| May 3, 2026, 03:45 | 619.04 | 618.75 |
| May 3, 2026, 03:30 | 619.04 | 618.73 |
| May 3, 2026, 03:15 | 619.06 | 618.75 |
| May 3, 2026, 03:00 | 619.06 | 618.76 |
| May 3, 2026, 02:45 | 619.04 | 618.76 |
| May 3, 2026, 02:30 | 619.06 | 618.76 |
| May 3, 2026, 02:15 | 619.06 | 618.76 |
| May 3, 2026, 02:00 | 619.06 | 618.77 |
| May 3, 2026, 01:45 | 619.07 | 618.77 |
| May 3, 2026, 01:30 | 619.07 | 618.78 |
| May 3, 2026, 01:15 | 619.08 | 618.78 |
| May 3, 2026, 01:00 | 619.08 | 618.78 |
| May 3, 2026, 00:45 | 619.06 | 618.78 |
| May 3, 2026, 00:30 | 619.08 | 618.78 |
| May 3, 2026, 00:15 | 619.08 | 618.78 |
| May 2, 2026, 24:00 | 619.10 | 618.78 |
| May 2, 2026, 23:45 | 619.09 | 618.78 |
| May 2, 2026, 23:30 | 619.08 | 618.78 |
| May 2, 2026, 23:15 | 619.09 | 618.79 |
| May 2, 2026, 23:00 | 619.08 | 618.79 |
| May 2, 2026, 22:45 | 619.04 | 618.79 |
| May 2, 2026, 22:30 | 619.09 | 618.79 |
| May 2, 2026, 22:15 | 619.10 | 618.81 |
| May 2, 2026, 22:00 | 619.11 | 618.79 |
| May 2, 2026, 21:45 | 619.12 | 618.79 |
| May 2, 2026, 21:30 | 619.12 | 618.79 |
| May 2, 2026, 21:15 | 619.11 | 618.81 |
| May 2, 2026, 21:00 | 619.12 | 618.82 |
| May 2, 2026, 20:45 | 619.11 | 618.82 |
| May 2, 2026, 20:30 | 619.11 | 618.81 |
| May 2, 2026, 20:15 | 619.12 | 618.81 |
| May 2, 2026, 20:00 | 619.10 | 618.81 |
| May 2, 2026, 19:45 | 619.12 | 618.82 |
| May 2, 2026, 19:30 | 619.12 | 618.82 |
| May 2, 2026, 19:15 | 619.12 | 618.82 |
| May 2, 2026, 19:00 | 619.12 | 618.82 |
| May 2, 2026, 18:45 | 619.11 | 618.82 |
| May 2, 2026, 18:30 | 619.11 | 618.83 |
| May 2, 2026, 18:15 | 619.11 | 618.82 |
| May 2, 2026, 18:00 | 619.12 | 618.83 |
| May 2, 2026, 17:45 | 619.15 | 618.84 |
| May 2, 2026, 17:30 | 619.12 | 618.83 |
| May 2, 2026, 17:15 | 619.14 | 618.83 |
| May 2, 2026, 17:00 | 619.14 | 618.83 |
| May 2, 2026, 16:45 | 619.14 | 618.83 |
| May 2, 2026, 16:30 | 619.14 | 618.83 |
| May 2, 2026, 16:15 | 619.14 | 618.84 |
| May 2, 2026, 16:00 | 619.12 | 618.83 |
| May 2, 2026, 15:45 | 619.12 | 618.83 |
| May 2, 2026, 15:30 | 619.12 | 618.83 |
| May 2, 2026, 15:15 | 619.12 | 618.83 |
| May 2, 2026, 15:00 | 619.12 | 618.83 |
| May 2, 2026, 14:45 | 619.12 | 618.83 |
| May 2, 2026, 14:30 | 619.12 | 618.83 |
| May 2, 2026, 14:15 | 619.12 | 618.83 |
| May 2, 2026, 14:00 | 619.07 | 618.84 |
| May 2, 2026, 13:45 | 619.12 | 618.84 |
| May 2, 2026, 13:30 | 619.15 | 618.85 |
| May 2, 2026, 13:15 | 619.14 | 618.82 |
| May 2, 2026, 13:00 | 619.14 | 618.83 |
| May 2, 2026, 12:45 | 619.14 | 618.86 |
| May 2, 2026, 12:30 | 619.16 | 618.84 |
| May 2, 2026, 12:15 | 619.14 | 618.84 |
| May 2, 2026, 12:00 | 619.16 | 618.86 |
| May 2, 2026, 11:45 | 619.16 | 618.87 |
| May 2, 2026, 11:30 | 619.16 | 618.86 |
| May 2, 2026, 11:15 | 619.16 | 618.86 |
| May 2, 2026, 11:00 | 619.17 | 618.87 |
| May 2, 2026, 10:45 | 619.16 | 618.87 |
| May 2, 2026, 10:30 | 619.16 | 618.86 |
| May 2, 2026, 10:15 | 619.17 | 618.87 |
| May 2, 2026, 10:00 | 619.16 | 618.87 |
| May 2, 2026, 09:45 | 619.17 | 618.87 |
| May 2, 2026, 09:30 | 619.18 | 618.87 |
| May 2, 2026, 09:15 | 619.17 | 618.87 |
| May 2, 2026, 09:00 | 619.17 | 618.87 |
| May 2, 2026, 08:45 | 619.16 | 618.87 |
| May 2, 2026, 08:30 | 619.17 | 618.87 |
| May 2, 2026, 08:15 | 619.17 | 618.87 |
| May 2, 2026, 08:00 | 619.17 | 618.87 |
| May 2, 2026, 07:45 | 619.17 | 618.87 |
| May 2, 2026, 07:30 | 619.18 | 618.87 |
| May 2, 2026, 07:15 | 619.18 | 618.87 |
| May 2, 2026, 07:00 | 619.18 | 618.87 |
| May 2, 2026, 06:45 | 619.18 | 618.89 |
| May 2, 2026, 06:30 | 619.18 | 618.87 |
| May 2, 2026, 06:15 | 619.18 | 618.89 |
| May 2, 2026, 06:00 | 619.19 | 618.89 |
| May 2, 2026, 05:45 | 619.19 | 618.89 |
| May 2, 2026, 05:30 | 619.19 | 618.90 |
| May 2, 2026, 05:15 | 619.19 | 618.90 |
| May 2, 2026, 05:00 | 619.20 | 618.90 |
| May 2, 2026, 04:45 | 619.20 | 618.90 |
| May 2, 2026, 04:30 | 619.19 | 618.90 |
| May 2, 2026, 04:15 | 619.20 | 618.90 |
| May 2, 2026, 04:00 | 619.20 | 618.90 |
| May 2, 2026, 03:45 | 619.20 | 618.90 |
| May 2, 2026, 03:30 | 619.20 | 618.91 |
| May 2, 2026, 03:15 | 619.20 | 618.91 |
| May 2, 2026, 03:00 | 619.20 | 618.91 |
| May 2, 2026, 02:45 | 619.20 | 618.92 |
| May 2, 2026, 02:30 | 619.20 | 618.92 |
| May 2, 2026, 02:15 | 619.20 | 618.92 |
| May 2, 2026, 02:00 | 619.21 | 618.92 |
| May 2, 2026, 01:45 | 619.23 | 618.92 |
| May 2, 2026, 01:30 | 619.23 | 618.92 |
| May 2, 2026, 01:15 | 619.24 | 618.94 |
| May 2, 2026, 01:00 | 619.24 | 618.93 |
| May 2, 2026, 00:45 | 619.24 | 618.94 |
| May 2, 2026, 00:30 | 619.24 | 618.93 |
| May 2, 2026, 00:15 | 619.23 | 618.92 |
| May 1, 2026, 24:00 | 619.24 | 618.94 |
| May 1, 2026, 23:45 | 619.25 | 618.94 |
| May 1, 2026, 23:30 | 619.24 | 618.94 |
| May 1, 2026, 23:15 | 619.24 | 618.94 |
| May 1, 2026, 23:00 | 619.24 | 618.95 |
| May 1, 2026, 22:45 | 619.25 | 618.94 |
| May 1, 2026, 22:30 | 619.25 | 618.94 |
| May 1, 2026, 22:15 | 619.24 | 618.94 |
| May 1, 2026, 22:00 | 619.24 | 618.94 |
| May 1, 2026, 21:45 | 619.24 | 618.95 |
| May 1, 2026, 21:30 | 619.25 | 618.95 |
| May 1, 2026, 21:15 | 619.25 | 618.95 |
| May 1, 2026, 21:00 | 619.26 | 618.95 |
| May 1, 2026, 20:45 | 619.27 | 618.95 |
| May 1, 2026, 20:30 | 619.26 | 618.95 |
| May 1, 2026, 20:15 | 619.26 | 618.95 |
| May 1, 2026, 20:00 | 619.25 | 618.95 |
| May 1, 2026, 19:45 | 619.26 | 618.95 |
| May 1, 2026, 19:30 | 619.26 | 618.95 |
| May 1, 2026, 19:15 | 619.25 | 618.95 |
| May 1, 2026, 19:00 | 619.28 | 618.98 |
| May 1, 2026, 18:45 | 619.28 | 618.96 |
| May 1, 2026, 18:30 | 619.27 | 618.98 |
| May 1, 2026, 18:15 | 619.28 | 618.98 |
| May 1, 2026, 18:00 | 619.28 | 618.98 |
| May 1, 2026, 17:45 | 619.26 | 618.95 |
| May 1, 2026, 17:30 | 619.26 | 618.96 |
| May 1, 2026, 17:15 | 619.26 | 618.96 |
| May 1, 2026, 17:00 | 619.25 | 618.95 |
| May 1, 2026, 16:45 | 619.26 | 618.95 |
| May 1, 2026, 16:30 | 619.25 | 618.95 |
| May 1, 2026, 16:15 | 619.24 | 618.95 |
| May 1, 2026, 16:00 | 619.25 | 618.95 |
| May 1, 2026, 15:45 | 619.25 | 618.95 |
| May 1, 2026, 15:30 | 619.24 | 618.95 |
| May 1, 2026, 15:15 | 619.25 | 618.95 |
| May 1, 2026, 15:00 | 619.26 | 618.95 |
| May 1, 2026, 14:45 | 619.26 | 618.95 |
| May 1, 2026, 14:30 | 619.26 | 618.96 |
| May 1, 2026, 14:15 | 619.26 | 618.96 |
| May 1, 2026, 14:00 | 619.26 | 618.96 |
| May 1, 2026, 13:45 | 619.26 | 618.96 |
| May 1, 2026, 13:30 | 619.26 | 618.96 |
| May 1, 2026, 13:15 | 619.26 | 618.98 |
| May 1, 2026, 13:00 | 619.26 | 618.98 |
| May 1, 2026, 12:45 | 619.26 | 618.96 |
| May 1, 2026, 12:30 | 619.26 | 618.98 |
| May 1, 2026, 12:15 | 619.27 | 618.98 |
| May 1, 2026, 12:00 | 619.27 | 618.98 |
| May 1, 2026, 11:45 | 619.27 | 618.98 |
| May 1, 2026, 11:30 | 619.26 | 618.98 |
| May 1, 2026, 11:15 | 619.27 | 618.98 |
| May 1, 2026, 11:00 | 619.27 | 618.98 |
| May 1, 2026, 10:45 | 619.28 | 618.98 |
| May 1, 2026, 10:30 | 619.27 | 618.98 |
| May 1, 2026, 10:15 | 619.26 | 618.98 |
| May 1, 2026, 10:00 | 619.27 | 618.98 |
| May 1, 2026, 09:45 | 619.27 | 618.98 |
| May 1, 2026, 09:30 | 619.29 | 618.99 |
| May 1, 2026, 09:15 | 619.26 | 618.98 |
| May 1, 2026, 09:00 | 619.27 | 618.98 |
| May 1, 2026, 08:45 | 619.26 | 618.98 |
| May 1, 2026, 08:30 | 619.28 | 618.99 |
| May 1, 2026, 08:15 | 619.29 | 618.99 |
| May 1, 2026, 08:00 | 619.28 | 618.98 |
| May 1, 2026, 07:45 | 619.28 | 618.98 |
| May 1, 2026, 07:30 | 619.27 | 618.99 |
| May 1, 2026, 07:15 | 619.28 | 619.00 |
| May 1, 2026, 07:00 | 619.28 | 619.00 |
| May 1, 2026, 06:45 | 619.28 | 618.99 |
| May 1, 2026, 06:30 | 619.28 | 618.99 |
| May 1, 2026, 06:15 | 619.28 | 618.99 |
| May 1, 2026, 06:00 | 619.29 | 619.00 |
| May 1, 2026, 05:45 | 619.29 | 619.00 |
| May 1, 2026, 05:30 | 619.28 | 618.99 |
| May 1, 2026, 05:15 | 619.28 | 619.00 |
| May 1, 2026, 05:00 | 619.28 | 619.00 |
| May 1, 2026, 04:45 | 619.29 | 619.00 |
| May 1, 2026, 04:30 | 619.31 | 619.00 |
| May 1, 2026, 04:15 | 619.32 | 619.02 |
| May 1, 2026, 04:00 | 619.33 | 619.02 |
| May 1, 2026, 03:45 | 619.34 | 619.03 |
| May 1, 2026, 03:30 | 619.35 | 619.04 |
| May 1, 2026, 03:15 | 619.35 | 619.04 |
| May 1, 2026, 03:00 | 619.36 | 619.04 |
| May 1, 2026, 02:45 | 619.36 | 619.04 |
| May 1, 2026, 02:30 | 619.35 | 619.03 |
| May 1, 2026, 02:15 | 619.34 | 619.02 |
| May 1, 2026, 02:00 | 619.33 | 619.02 |
| May 1, 2026, 01:45 | 619.35 | 619.02 |
| May 1, 2026, 01:30 | 619.34 | 619.03 |
| May 1, 2026, 01:15 | 619.34 | 619.04 |
| May 1, 2026, 01:00 | 619.36 | 619.04 |
| May 1, 2026, 00:45 | 619.35 | 619.04 |
| May 1, 2026, 00:30 | 619.36 | 619.04 |
| May 1, 2026, 00:15 | 619.36 | 619.04 |
| April 30, 2026, 24:00 | 619.35 | 619.03 |
| April 30, 2026, 23:45 | 619.35 | 619.03 |
| April 30, 2026, 23:30 | 619.34 | 619.03 |
| April 30, 2026, 23:15 | 619.35 | 619.03 |
| April 30, 2026, 23:00 | 619.34 | 619.03 |
| April 30, 2026, 22:45 | 619.35 | 619.03 |
| April 30, 2026, 22:30 | 619.34 | 619.03 |
| April 30, 2026, 22:15 | 619.34 | 619.03 |
| April 30, 2026, 22:00 | 619.34 | 619.03 |
| April 30, 2026, 21:45 | 619.34 | 619.03 |
| April 30, 2026, 21:30 | 619.34 | 619.03 |
| April 30, 2026, 21:15 | 619.33 | 619.02 |
| April 30, 2026, 21:00 | 619.33 | 619.03 |
| April 30, 2026, 20:45 | 619.34 | 619.03 |
| April 30, 2026, 20:30 | 619.34 | 619.03 |
| April 30, 2026, 20:15 | 619.36 | 619.04 |
| April 30, 2026, 20:00 | 619.36 | 619.04 |
| April 30, 2026, 19:45 | 619.36 | 619.04 |
| April 30, 2026, 19:30 | 619.36 | 619.04 |
| April 30, 2026, 19:15 | 619.36 | 619.04 |
| April 30, 2026, 19:00 | 619.35 | 619.04 |
| April 30, 2026, 18:45 | 619.36 | 619.04 |
| April 30, 2026, 18:30 | 619.36 | 619.04 |
| April 30, 2026, 18:15 | 619.35 | 619.03 |
| April 30, 2026, 18:00 | 619.36 | 619.04 |
| April 30, 2026, 17:45 | 619.36 | 619.06 |
| April 30, 2026, 17:30 | 619.37 | 619.04 |
| April 30, 2026, 17:15 | 619.37 | 619.04 |
| April 30, 2026, 17:00 | 619.37 | 619.03 |
| April 30, 2026, 16:45 | 619.40 | 619.04 |
| April 30, 2026, 16:30 | 619.37 | 619.03 |
| April 30, 2026, 16:15 | 619.41 | 619.04 |
| April 30, 2026, 16:00 | 619.40 | 619.03 |
| April 30, 2026, 15:45 | 619.44 | 619.04 |
| April 30, 2026, 15:30 | 619.40 | 619.02 |
| April 30, 2026, 15:15 | 619.40 | 619.00 |
| April 30, 2026, 15:00 | 619.42 | 618.98 |
| April 30, 2026, 14:45 | 619.44 | 618.92 |
| April 30, 2026, 14:30 | 619.50 | 618.84 |
| April 30, 2026, 14:15 | 619.51 | 618.84 |
| April 30, 2026, 14:00 | 619.57 | 618.77 |
| April 30, 2026, 13:45 | 619.58 | 618.70 |
| April 30, 2026, 13:30 | 619.61 | 618.69 |
| April 30, 2026, 13:15 | 619.62 | 618.68 |
| April 30, 2026, 13:00 | 619.64 | 618.67 |
| April 30, 2026, 12:45 | 619.62 | 618.67 |
| April 30, 2026, 12:30 | 619.62 | 618.68 |
| April 30, 2026, 12:15 | 619.62 | 618.67 |
| April 30, 2026, 12:00 | 619.61 | 618.67 |
| April 30, 2026, 11:45 | 619.61 | 618.67 |
| April 30, 2026, 11:30 | 619.61 | 618.67 |
| April 30, 2026, 11:15 | 619.61 | 618.67 |
| April 30, 2026, 11:00 | 619.61 | 618.67 |
| April 30, 2026, 10:45 | 619.60 | 618.67 |
| April 30, 2026, 10:30 | 619.60 | 618.67 |
| Date/Time (UTC) | LockDam_09 Flow cfs |
|---|---|
| May 7, 2026, 10:15 | 68000 |
| May 7, 2026, 10:00 | 68000 |
| May 7, 2026, 09:45 | 67900 |
| May 7, 2026, 09:30 | 67900 |
| May 7, 2026, 09:15 | 67900 |
| May 7, 2026, 09:00 | 67900 |
| May 7, 2026, 08:45 | 67900 |
| May 7, 2026, 08:30 | 67900 |
| May 7, 2026, 08:15 | 67800 |
| May 7, 2026, 08:00 | 67900 |
| May 7, 2026, 07:45 | 67800 |
| May 7, 2026, 07:30 | 67900 |
| May 7, 2026, 07:15 | 67900 |
| May 7, 2026, 07:00 | 67800 |
| May 7, 2026, 06:45 | 67900 |
| May 7, 2026, 06:30 | 67800 |
| May 7, 2026, 06:15 | 67800 |
| May 7, 2026, 06:00 | 67800 |
| May 7, 2026, 05:45 | 67900 |
| May 7, 2026, 05:30 | 67800 |
| May 7, 2026, 05:15 | 67800 |
| May 7, 2026, 05:00 | 67900 |
| May 7, 2026, 04:45 | 67900 |
| May 7, 2026, 04:30 | 67800 |
| May 7, 2026, 04:15 | 67800 |
| May 7, 2026, 04:00 | 67900 |
| May 7, 2026, 03:45 | 67800 |
| May 7, 2026, 03:30 | 67900 |
| May 7, 2026, 03:15 | 67900 |
| May 7, 2026, 03:00 | 67900 |
| May 7, 2026, 02:45 | 67900 |
| May 7, 2026, 02:30 | 67900 |
| May 7, 2026, 02:15 | 67900 |
| May 7, 2026, 02:00 | 67900 |
| May 7, 2026, 01:45 | 67900 |
| May 7, 2026, 01:30 | 68000 |
| May 7, 2026, 01:15 | 68100 |
| May 7, 2026, 01:00 | 68000 |
| May 7, 2026, 00:45 | 68100 |
| May 7, 2026, 00:30 | 68100 |
| May 7, 2026, 00:15 | 68100 |
| May 6, 2026, 24:00 | 68100 |
| May 6, 2026, 23:45 | 68100 |
| May 6, 2026, 23:30 | 68200 |
| May 6, 2026, 23:15 | 68200 |
| May 6, 2026, 23:00 | 68100 |
| May 6, 2026, 22:45 | 68100 |
| May 6, 2026, 22:30 | 68100 |
| May 6, 2026, 22:15 | 68200 |
| May 6, 2026, 22:00 | 68100 |
| May 6, 2026, 21:45 | 67800 |
| May 6, 2026, 21:30 | 68200 |
| May 6, 2026, 21:15 | 68200 |
| May 6, 2026, 21:00 | 68000 |
| May 6, 2026, 20:45 | 68100 |
| May 6, 2026, 20:30 | 68100 |
| May 6, 2026, 20:15 | 68200 |
| May 6, 2026, 20:00 | 68000 |
| May 6, 2026, 19:45 | 68100 |
| May 6, 2026, 19:30 | 68000 |
| May 6, 2026, 19:15 | 67900 |
| May 6, 2026, 19:00 | 67900 |
| May 6, 2026, 18:45 | 68000 |
| May 6, 2026, 18:30 | 68100 |
| May 6, 2026, 18:15 | 68000 |
| May 6, 2026, 18:00 | 68100 |
| May 6, 2026, 17:45 | 68100 |
| May 6, 2026, 17:30 | 68000 |
| May 6, 2026, 17:15 | 68100 |
| May 6, 2026, 17:00 | 68200 |
| May 6, 2026, 16:45 | 68100 |
| May 6, 2026, 16:30 | 68200 |
| May 6, 2026, 16:15 | 68200 |
| May 6, 2026, 16:00 | 68100 |
| May 6, 2026, 15:45 | 67900 |
| May 6, 2026, 15:30 | 68000 |
| May 6, 2026, 15:15 | 68000 |
| May 6, 2026, 15:00 | 67900 |
| May 6, 2026, 14:45 | 67800 |
| May 6, 2026, 14:30 | 67800 |
| May 6, 2026, 14:15 | 67800 |
| May 6, 2026, 14:00 | 67800 |
| May 6, 2026, 13:45 | 67800 |
| May 6, 2026, 13:30 | 67800 |
| May 6, 2026, 13:15 | 67800 |
| May 6, 2026, 13:00 | 67800 |
| May 6, 2026, 12:45 | 67800 |
| May 6, 2026, 12:30 | 67800 |
| May 6, 2026, 12:15 | 67800 |
| May 6, 2026, 12:00 | 67700 |
| May 6, 2026, 11:45 | 67700 |
| May 6, 2026, 11:30 | 67700 |
| May 6, 2026, 11:15 | 67700 |
| May 6, 2026, 11:00 | 67600 |
| May 6, 2026, 10:45 | 67600 |
| May 6, 2026, 10:30 | 67600 |
| May 6, 2026, 10:15 | 67600 |
| May 6, 2026, 10:00 | 67400 |
| May 6, 2026, 09:45 | 67600 |
| May 6, 2026, 09:30 | 67600 |
| May 6, 2026, 09:15 | 67700 |
| May 6, 2026, 09:00 | 67600 |
| May 6, 2026, 08:45 | 67600 |
| May 6, 2026, 08:30 | 67600 |
| May 6, 2026, 08:15 | 67600 |
| May 6, 2026, 08:00 | 67400 |
| May 6, 2026, 07:45 | 67400 |
| May 6, 2026, 07:30 | 67400 |
| May 6, 2026, 07:15 | 67300 |
| May 6, 2026, 07:00 | 67400 |
| May 6, 2026, 06:45 | 67400 |
| May 6, 2026, 06:30 | 67600 |
| May 6, 2026, 06:15 | 67300 |
| May 6, 2026, 06:00 | 66800 |
| May 6, 2026, 05:45 | 67400 |
| May 6, 2026, 05:30 | 67400 |
| May 6, 2026, 05:15 | 67200 |
| May 6, 2026, 05:00 | 67400 |
| May 6, 2026, 04:45 | 67000 |
| May 6, 2026, 04:30 | 67400 |
| May 6, 2026, 04:15 | 67300 |
| May 6, 2026, 04:00 | 67300 |
| May 6, 2026, 03:45 | 67400 |
| May 6, 2026, 03:30 | 67300 |
| May 6, 2026, 03:15 | 67400 |
| May 6, 2026, 03:00 | 67400 |
| May 6, 2026, 02:45 | 67100 |
| May 6, 2026, 02:30 | 67000 |
| May 6, 2026, 02:15 | 67400 |
| May 6, 2026, 02:00 | 67400 |
| May 6, 2026, 01:45 | 67600 |
| May 6, 2026, 01:30 | 67600 |
| May 6, 2026, 01:15 | 67400 |
| May 6, 2026, 01:00 | 67600 |
| May 6, 2026, 00:45 | 67400 |
| May 6, 2026, 00:30 | 67400 |
| May 6, 2026, 00:15 | 67400 |
| May 5, 2026, 24:00 | 67600 |
| May 5, 2026, 23:45 | 67600 |
| May 5, 2026, 23:30 | 67600 |
| May 5, 2026, 23:15 | 67600 |
| May 5, 2026, 23:00 | 67600 |
| May 5, 2026, 22:45 | 67400 |
| May 5, 2026, 22:30 | 67600 |
| May 5, 2026, 22:15 | 67200 |
| May 5, 2026, 22:00 | 67400 |
| May 5, 2026, 21:45 | 67400 |
| May 5, 2026, 21:30 | 67400 |
| May 5, 2026, 21:15 | 67400 |
| May 5, 2026, 21:00 | 67400 |
| May 5, 2026, 20:45 | 67300 |
| May 5, 2026, 20:30 | 67400 |
| May 5, 2026, 20:15 | 67300 |
| May 5, 2026, 20:00 | 67300 |
| May 5, 2026, 19:45 | 67300 |
| May 5, 2026, 19:30 | 67400 |
| May 5, 2026, 19:15 | 67300 |
| May 5, 2026, 19:00 | 67300 |
| May 5, 2026, 18:45 | 67200 |
| May 5, 2026, 18:30 | 67300 |
| May 5, 2026, 18:15 | 67300 |
| May 5, 2026, 18:00 | 67400 |
| May 5, 2026, 17:45 | 67200 |
| May 5, 2026, 17:30 | 67400 |
| May 5, 2026, 17:15 | 66900 |
| May 5, 2026, 17:00 | 67000 |
| May 5, 2026, 16:45 | 67200 |
| May 5, 2026, 16:30 | 66900 |
| May 5, 2026, 16:15 | 67300 |
| May 5, 2026, 16:00 | 67300 |
| May 5, 2026, 15:45 | 67200 |
| May 5, 2026, 15:30 | 67300 |
| May 5, 2026, 15:15 | 67100 |
| May 5, 2026, 15:00 | 67200 |
| May 5, 2026, 14:45 | 67000 |
| May 5, 2026, 14:30 | 67000 |
| May 5, 2026, 14:15 | 66900 |
| May 5, 2026, 14:00 | 66800 |
| May 5, 2026, 13:45 | 66800 |
| May 5, 2026, 13:30 | 66800 |
| May 5, 2026, 13:15 | 66800 |
| May 5, 2026, 13:00 | 66600 |
| May 5, 2026, 12:45 | 66600 |
| May 5, 2026, 12:30 | 66500 |
| May 5, 2026, 12:15 | 66600 |
| May 5, 2026, 12:00 | 66600 |
| May 5, 2026, 11:45 | 66600 |
| May 5, 2026, 11:30 | 66500 |
| May 5, 2026, 11:15 | 66500 |
| May 5, 2026, 11:00 | 66600 |
| May 5, 2026, 10:45 | 66600 |
| May 5, 2026, 10:30 | 66600 |
| May 5, 2026, 10:15 | 66600 |
| May 5, 2026, 10:00 | 66600 |
| May 5, 2026, 09:45 | 66600 |
| May 5, 2026, 09:30 | 66600 |
| May 5, 2026, 09:15 | 66600 |
| May 5, 2026, 09:00 | 66600 |
| May 5, 2026, 08:45 | 66800 |
| May 5, 2026, 08:30 | 66800 |
| May 5, 2026, 08:15 | 66800 |
| May 5, 2026, 08:00 | 66900 |
| May 5, 2026, 07:45 | 67000 |
| May 5, 2026, 07:30 | 67100 |
| May 5, 2026, 07:15 | 67200 |
| May 5, 2026, 07:00 | 67200 |
| May 5, 2026, 06:45 | 67400 |
| May 5, 2026, 06:30 | 67400 |
| May 5, 2026, 06:15 | 67400 |
| May 5, 2026, 06:00 | 67400 |
| May 5, 2026, 05:45 | 67400 |
| May 5, 2026, 05:30 | 67400 |
| May 5, 2026, 05:15 | 67400 |
| May 5, 2026, 05:00 | 67300 |
| May 5, 2026, 04:45 | 67100 |
| May 5, 2026, 04:30 | 67400 |
| May 5, 2026, 04:15 | 67400 |
| May 5, 2026, 04:00 | 67300 |
| May 5, 2026, 03:45 | 67200 |
| May 5, 2026, 03:30 | 67100 |
| May 5, 2026, 03:15 | 66900 |
| May 5, 2026, 03:00 | 66800 |
| May 5, 2026, 02:45 | 66500 |
| May 5, 2026, 02:30 | 66600 |
| May 5, 2026, 02:15 | 66600 |
| May 5, 2026, 02:00 | 66800 |
| May 5, 2026, 01:45 | 66600 |
| May 5, 2026, 01:30 | 66600 |
| May 5, 2026, 01:15 | 65900 |
| May 5, 2026, 01:00 | 66200 |
| May 5, 2026, 00:45 | 66300 |
| May 5, 2026, 00:30 | 66800 |
| May 5, 2026, 00:15 | 66800 |
| May 4, 2026, 24:00 | 66800 |
| May 4, 2026, 23:45 | 66900 |
| May 4, 2026, 23:30 | 67000 |
| May 4, 2026, 23:15 | 66800 |
| May 4, 2026, 23:00 | 66900 |
| May 4, 2026, 22:45 | 66800 |
| May 4, 2026, 22:30 | 66800 |
| May 4, 2026, 22:15 | 66800 |
| May 4, 2026, 22:00 | 66800 |
| May 4, 2026, 21:45 | 66900 |
| May 4, 2026, 21:30 | 66900 |
| May 4, 2026, 21:15 | 66600 |
| May 4, 2026, 21:00 | 66400 |
| May 4, 2026, 20:45 | 66400 |
| May 4, 2026, 20:30 | 66200 |
| May 4, 2026, 20:15 | 66500 |
| May 4, 2026, 20:00 | 66400 |
| May 4, 2026, 19:45 | 66500 |
| May 4, 2026, 19:30 | 66500 |
| May 4, 2026, 19:15 | 66400 |
| May 4, 2026, 19:00 | 66100 |
| May 4, 2026, 18:45 | 66200 |
| May 4, 2026, 18:30 | 66400 |
| May 4, 2026, 18:15 | 66100 |
| May 4, 2026, 18:00 | 66000 |
| May 4, 2026, 17:45 | 66100 |
| May 4, 2026, 17:30 | 66100 |
| May 4, 2026, 17:15 | 66000 |
| May 4, 2026, 17:00 | 66000 |
| May 4, 2026, 16:45 | 66200 |
| May 4, 2026, 16:30 | 65900 |
| May 4, 2026, 16:15 | 66100 |
| May 4, 2026, 16:00 | 66000 |
| May 4, 2026, 15:45 | 66200 |
| May 4, 2026, 15:30 | 66200 |
| May 4, 2026, 15:15 | 66600 |
| May 4, 2026, 15:00 | 67000 |
| May 4, 2026, 14:45 | 67400 |
| May 4, 2026, 14:30 | 67800 |
| May 4, 2026, 14:15 | 68100 |
| May 4, 2026, 14:00 | 68200 |
| May 4, 2026, 13:45 | 68400 |
| May 4, 2026, 13:30 | 68600 |
| May 4, 2026, 13:15 | 68600 |
| May 4, 2026, 13:00 | 68600 |
| May 4, 2026, 12:45 | 68600 |
| May 4, 2026, 12:30 | 68600 |
| May 4, 2026, 12:15 | 68500 |
| May 4, 2026, 12:00 | 68600 |
| May 4, 2026, 11:45 | 68500 |
| May 4, 2026, 11:30 | 68600 |
| May 4, 2026, 11:15 | 68600 |
| May 4, 2026, 11:00 | 68600 |
| May 4, 2026, 10:45 | 68600 |
| May 4, 2026, 10:30 | 68600 |
| May 4, 2026, 10:15 | 68600 |
| May 4, 2026, 10:00 | 68600 |
| May 4, 2026, 09:45 | 68600 |
| May 4, 2026, 09:30 | 68600 |
| May 4, 2026, 09:15 | 68700 |
| May 4, 2026, 09:00 | 68600 |
| May 4, 2026, 08:45 | 68600 |
| May 4, 2026, 08:30 | 68700 |
| May 4, 2026, 08:15 | 68600 |
| May 4, 2026, 08:00 | 68600 |
| May 4, 2026, 07:45 | 68700 |
| May 4, 2026, 07:30 | 68600 |
| May 4, 2026, 07:15 | 68700 |
| May 4, 2026, 07:00 | 68600 |
| May 4, 2026, 06:45 | 68700 |
| May 4, 2026, 06:30 | 68600 |
| May 4, 2026, 06:15 | 68700 |
| May 4, 2026, 06:00 | 68700 |
| May 4, 2026, 05:45 | 68700 |
| May 4, 2026, 05:30 | 68700 |
| May 4, 2026, 05:15 | 68700 |
| May 4, 2026, 05:00 | 68700 |
| May 4, 2026, 04:45 | 68700 |
| May 4, 2026, 04:30 | 68800 |
| May 4, 2026, 04:15 | 68700 |
| May 4, 2026, 04:00 | 68700 |
| May 4, 2026, 03:45 | 68800 |
| May 4, 2026, 03:30 | 68800 |
| May 4, 2026, 03:15 | 68800 |
| May 4, 2026, 03:00 | 68800 |
| May 4, 2026, 02:45 | 68800 |
| May 4, 2026, 02:30 | 68800 |
| May 4, 2026, 02:15 | 68800 |
| May 4, 2026, 02:00 | 68800 |
| May 4, 2026, 01:45 | 68800 |
| May 4, 2026, 01:30 | 68900 |
| May 4, 2026, 01:15 | 68900 |
| May 4, 2026, 01:00 | 68900 |
| May 4, 2026, 00:45 | 69000 |
| May 4, 2026, 00:30 | 69000 |
| May 4, 2026, 00:15 | 68900 |
| May 3, 2026, 24:00 | 69000 |
| May 3, 2026, 23:45 | 69000 |
| May 3, 2026, 23:30 | 68700 |
| May 3, 2026, 23:15 | 68600 |
| May 3, 2026, 23:00 | 69000 |
| May 3, 2026, 22:45 | 69100 |
| May 3, 2026, 22:30 | 69000 |
| May 3, 2026, 22:15 | 69100 |
| May 3, 2026, 22:00 | 69100 |
| May 3, 2026, 21:45 | 69000 |
| May 3, 2026, 21:30 | 69000 |
| May 3, 2026, 21:15 | 69100 |
| May 3, 2026, 21:00 | 69000 |
| May 3, 2026, 20:45 | 69000 |
| May 3, 2026, 20:30 | 69000 |
| May 3, 2026, 20:15 | 69000 |
| May 3, 2026, 20:00 | 69000 |
| May 3, 2026, 19:45 | 69000 |
| May 3, 2026, 19:30 | 69000 |
| May 3, 2026, 19:15 | 69000 |
| May 3, 2026, 19:00 | 69000 |
| May 3, 2026, 18:45 | 69000 |
| May 3, 2026, 18:30 | 69000 |
| May 3, 2026, 18:15 | 69000 |
| May 3, 2026, 18:00 | 68900 |
| May 3, 2026, 17:45 | 68900 |
| May 3, 2026, 17:30 | 69000 |
| May 3, 2026, 17:15 | 68900 |
| May 3, 2026, 17:00 | 68800 |
| May 3, 2026, 16:45 | 68800 |
| May 3, 2026, 16:30 | 68700 |
| May 3, 2026, 16:15 | 68700 |
| May 3, 2026, 16:00 | 68500 |
| May 3, 2026, 15:45 | 68600 |
| May 3, 2026, 15:30 | 68500 |
| May 3, 2026, 15:15 | 68500 |
| May 3, 2026, 15:00 | 68600 |
| May 3, 2026, 14:45 | 68700 |
| May 3, 2026, 14:30 | 68700 |
| May 3, 2026, 14:15 | 68700 |
| May 3, 2026, 14:00 | 68900 |
| May 3, 2026, 13:45 | 69000 |
| May 3, 2026, 13:30 | 69000 |
| May 3, 2026, 13:15 | 69000 |
| May 3, 2026, 13:00 | 68900 |
| May 3, 2026, 12:45 | 68900 |
| May 3, 2026, 12:30 | 68900 |
| May 3, 2026, 12:15 | 68700 |
| May 3, 2026, 12:00 | 69000 |
| May 3, 2026, 11:45 | 68900 |
| May 3, 2026, 11:30 | 68900 |
| May 3, 2026, 11:15 | 68800 |
| May 3, 2026, 11:00 | 68900 |
| May 3, 2026, 10:45 | 69000 |
| May 3, 2026, 10:30 | 69000 |
| May 3, 2026, 10:15 | 69000 |
| May 3, 2026, 10:00 | 69000 |
| May 3, 2026, 09:45 | 69000 |
| May 3, 2026, 09:30 | 69000 |
| May 3, 2026, 09:15 | 69000 |
| May 3, 2026, 09:00 | 69000 |
| May 3, 2026, 08:45 | 69000 |
| May 3, 2026, 08:30 | 69000 |
| May 3, 2026, 08:15 | 69000 |
| May 3, 2026, 08:00 | 69000 |
| May 3, 2026, 07:45 | 69000 |
| May 3, 2026, 07:30 | 69000 |
| May 3, 2026, 07:15 | 69000 |
| May 3, 2026, 07:00 | 69000 |
| May 3, 2026, 06:45 | 69000 |
| May 3, 2026, 06:30 | 69100 |
| May 3, 2026, 06:15 | 69100 |
| May 3, 2026, 06:00 | 69100 |
| May 3, 2026, 05:45 | 69100 |
| May 3, 2026, 05:30 | 69100 |
| May 3, 2026, 05:15 | 69100 |
| May 3, 2026, 05:00 | 69100 |
| May 3, 2026, 04:45 | 69300 |
| May 3, 2026, 04:30 | 69400 |
| May 3, 2026, 04:15 | 69400 |
| May 3, 2026, 04:00 | 69400 |
| May 3, 2026, 03:45 | 69500 |
| May 3, 2026, 03:30 | 69300 |
| May 3, 2026, 03:15 | 69500 |
| May 3, 2026, 03:00 | 69600 |
| May 3, 2026, 02:45 | 69600 |
| May 3, 2026, 02:30 | 69600 |
| May 3, 2026, 02:15 | 69600 |
| May 3, 2026, 02:00 | 69700 |
| May 3, 2026, 01:45 | 69700 |
| May 3, 2026, 01:30 | 69800 |
| May 3, 2026, 01:15 | 69800 |
| May 3, 2026, 01:00 | 69800 |
| May 3, 2026, 00:45 | 69800 |
| May 3, 2026, 00:30 | 69800 |
| May 3, 2026, 00:15 | 69800 |
| May 2, 2026, 24:00 | 69800 |
| May 2, 2026, 23:45 | 69800 |
| May 2, 2026, 23:30 | 69800 |
| May 2, 2026, 23:15 | 69900 |
| May 2, 2026, 23:00 | 69900 |
| May 2, 2026, 22:45 | 69900 |
| May 2, 2026, 22:30 | 69900 |
| May 2, 2026, 22:15 | 70100 |
| May 2, 2026, 22:00 | 69900 |
| May 2, 2026, 21:45 | 69900 |
| May 2, 2026, 21:30 | 69900 |
| May 2, 2026, 21:15 | 70100 |
| May 2, 2026, 21:00 | 70200 |
| May 2, 2026, 20:45 | 70200 |
| May 2, 2026, 20:30 | 70100 |
| May 2, 2026, 20:15 | 70100 |
| May 2, 2026, 20:00 | 70100 |
| May 2, 2026, 19:45 | 70200 |
| May 2, 2026, 19:30 | 70200 |
| May 2, 2026, 19:15 | 70200 |
| May 2, 2026, 19:00 | 70200 |
| May 2, 2026, 18:45 | 70200 |
| May 2, 2026, 18:30 | 70300 |
| May 2, 2026, 18:15 | 70200 |
| May 2, 2026, 18:00 | 70300 |
| May 2, 2026, 17:45 | 70400 |
| May 2, 2026, 17:30 | 70300 |
| May 2, 2026, 17:15 | 70300 |
| May 2, 2026, 17:00 | 70300 |
| May 2, 2026, 16:45 | 70300 |
| May 2, 2026, 16:30 | 70300 |
| May 2, 2026, 16:15 | 70400 |
| May 2, 2026, 16:00 | 70300 |
| May 2, 2026, 15:45 | 70300 |
| May 2, 2026, 15:30 | 70300 |
| May 2, 2026, 15:15 | 70300 |
| May 2, 2026, 15:00 | 70300 |
| May 2, 2026, 14:45 | 70300 |
| May 2, 2026, 14:30 | 70300 |
| May 2, 2026, 14:15 | 70300 |
| May 2, 2026, 14:00 | 70400 |
| May 2, 2026, 13:45 | 70400 |
| May 2, 2026, 13:30 | 70500 |
| May 2, 2026, 13:15 | 70200 |
| May 2, 2026, 13:00 | 70300 |
| May 2, 2026, 12:45 | 70600 |
| May 2, 2026, 12:30 | 70400 |
| May 2, 2026, 12:15 | 70400 |
| May 2, 2026, 12:00 | 70600 |
| May 2, 2026, 11:45 | 70700 |
| May 2, 2026, 11:30 | 70600 |
| May 2, 2026, 11:15 | 70600 |
| May 2, 2026, 11:00 | 70700 |
| May 2, 2026, 10:45 | 70700 |
| May 2, 2026, 10:30 | 70600 |
| May 2, 2026, 10:15 | 70700 |
| May 2, 2026, 10:00 | 70700 |
| May 2, 2026, 09:45 | 70700 |
| May 2, 2026, 09:30 | 70700 |
| May 2, 2026, 09:15 | 70700 |
| May 2, 2026, 09:00 | 70700 |
| May 2, 2026, 08:45 | 70700 |
| May 2, 2026, 08:30 | 70700 |
| May 2, 2026, 08:15 | 70700 |
| May 2, 2026, 08:00 | 70700 |
| May 2, 2026, 07:45 | 70700 |
| May 2, 2026, 07:30 | 70700 |
| May 2, 2026, 07:15 | 70700 |
| May 2, 2026, 07:00 | 70700 |
| May 2, 2026, 06:45 | 70900 |
| May 2, 2026, 06:30 | 70700 |
| May 2, 2026, 06:15 | 70900 |
| May 2, 2026, 06:00 | 70900 |
| May 2, 2026, 05:45 | 70900 |
| May 2, 2026, 05:30 | 71000 |
| May 2, 2026, 05:15 | 71000 |
| May 2, 2026, 05:00 | 71000 |
| May 2, 2026, 04:45 | 71000 |
| May 2, 2026, 04:30 | 71000 |
| May 2, 2026, 04:15 | 71000 |
| May 2, 2026, 04:00 | 71000 |
| May 2, 2026, 03:45 | 71000 |
| May 2, 2026, 03:30 | 71100 |
| May 2, 2026, 03:15 | 71100 |
| May 2, 2026, 03:00 | 71100 |
| May 2, 2026, 02:45 | 71200 |
| May 2, 2026, 02:30 | 71200 |
| May 2, 2026, 02:15 | 71200 |
| May 2, 2026, 02:00 | 71200 |
| May 2, 2026, 01:45 | 71200 |
| May 2, 2026, 01:30 | 71200 |
| May 2, 2026, 01:15 | 71400 |
| May 2, 2026, 01:00 | 71300 |
| May 2, 2026, 00:45 | 71400 |
| May 2, 2026, 00:30 | 71300 |
| May 2, 2026, 00:15 | 71200 |
| May 1, 2026, 24:00 | 71400 |
| May 1, 2026, 23:45 | 71400 |
| May 1, 2026, 23:30 | 71400 |
| May 1, 2026, 23:15 | 71400 |
| May 1, 2026, 23:00 | 71500 |
| May 1, 2026, 22:45 | 71400 |
| May 1, 2026, 22:30 | 71400 |
| May 1, 2026, 22:15 | 71400 |
| May 1, 2026, 22:00 | 71400 |
| May 1, 2026, 21:45 | 71500 |
| May 1, 2026, 21:30 | 71500 |
| May 1, 2026, 21:15 | 71500 |
| May 1, 2026, 21:00 | 71500 |
| May 1, 2026, 20:45 | 71500 |
| May 1, 2026, 20:30 | 71500 |
| May 1, 2026, 20:15 | 71500 |
| May 1, 2026, 20:00 | 71500 |
| May 1, 2026, 19:45 | 71500 |
| May 1, 2026, 19:30 | 71500 |
| May 1, 2026, 19:15 | 71500 |
| May 1, 2026, 19:00 | 71800 |
| May 1, 2026, 18:45 | 71600 |
| May 1, 2026, 18:30 | 71800 |
| May 1, 2026, 18:15 | 71800 |
| May 1, 2026, 18:00 | 71800 |
| May 1, 2026, 17:45 | 71500 |
| May 1, 2026, 17:30 | 71600 |
| May 1, 2026, 17:15 | 71600 |
| May 1, 2026, 17:00 | 71500 |
| May 1, 2026, 16:45 | 71500 |
| May 1, 2026, 16:30 | 71500 |
| May 1, 2026, 16:15 | 71500 |
| May 1, 2026, 16:00 | 71500 |
| May 1, 2026, 15:45 | 71500 |
| May 1, 2026, 15:30 | 71500 |
| May 1, 2026, 15:15 | 71500 |
| May 1, 2026, 15:00 | 71500 |
| May 1, 2026, 14:45 | 71500 |
| May 1, 2026, 14:30 | 71600 |
| May 1, 2026, 14:15 | 71600 |
| May 1, 2026, 14:00 | 71600 |
| May 1, 2026, 13:45 | 71600 |
| May 1, 2026, 13:30 | 71600 |
| May 1, 2026, 13:15 | 71800 |
| May 1, 2026, 13:00 | 71800 |
| May 1, 2026, 12:45 | 71600 |
| May 1, 2026, 12:30 | 71800 |
| May 1, 2026, 12:15 | 71800 |
| May 1, 2026, 12:00 | 71800 |
| May 1, 2026, 11:45 | 71800 |
| May 1, 2026, 11:30 | 71800 |
| May 1, 2026, 11:15 | 71800 |
| May 1, 2026, 11:00 | 71800 |
| May 1, 2026, 10:45 | 71800 |
| May 1, 2026, 10:30 | 71800 |
| May 1, 2026, 10:15 | 71800 |
| May 1, 2026, 10:00 | 71800 |
| May 1, 2026, 09:45 | 71800 |
| May 1, 2026, 09:30 | 71900 |
| May 1, 2026, 09:15 | 71800 |
| May 1, 2026, 09:00 | 71800 |
| May 1, 2026, 08:45 | 71800 |
| May 1, 2026, 08:30 | 71900 |
| May 1, 2026, 08:15 | 71900 |
| May 1, 2026, 08:00 | 71800 |
| May 1, 2026, 07:45 | 71800 |
| May 1, 2026, 07:30 | 71900 |
| May 1, 2026, 07:15 | 72000 |
| May 1, 2026, 07:00 | 72000 |
| May 1, 2026, 06:45 | 71900 |
| May 1, 2026, 06:30 | 71900 |
| May 1, 2026, 06:15 | 71900 |
| May 1, 2026, 06:00 | 72000 |
| May 1, 2026, 05:45 | 72000 |
| May 1, 2026, 05:30 | 71900 |
| May 1, 2026, 05:15 | 72000 |
| May 1, 2026, 05:00 | 72000 |
| May 1, 2026, 04:45 | 72000 |
| May 1, 2026, 04:30 | 72000 |
| May 1, 2026, 04:15 | 72200 |
| May 1, 2026, 04:00 | 72200 |
| May 1, 2026, 03:45 | 72300 |
| May 1, 2026, 03:30 | 72400 |
| May 1, 2026, 03:15 | 72400 |
| May 1, 2026, 03:00 | 72400 |
| May 1, 2026, 02:45 | 72400 |
| May 1, 2026, 02:30 | 72300 |
| May 1, 2026, 02:15 | 72200 |
| May 1, 2026, 02:00 | 72200 |
| May 1, 2026, 01:45 | 72200 |
| May 1, 2026, 01:30 | 72300 |
| May 1, 2026, 01:15 | 72400 |
| May 1, 2026, 01:00 | 72400 |
| May 1, 2026, 00:45 | 72400 |
| May 1, 2026, 00:30 | 72400 |
| May 1, 2026, 00:15 | 72400 |
| April 30, 2026, 24:00 | 72300 |
| April 30, 2026, 23:45 | 72300 |
| April 30, 2026, 23:30 | 72300 |
| April 30, 2026, 23:15 | 72300 |
| April 30, 2026, 23:00 | 72300 |
| April 30, 2026, 22:45 | 72300 |
| April 30, 2026, 22:30 | 72300 |
| April 30, 2026, 22:15 | 72300 |
| April 30, 2026, 22:00 | 72300 |
| April 30, 2026, 21:45 | 72300 |
| April 30, 2026, 21:30 | 72300 |
| April 30, 2026, 21:15 | 72200 |
| April 30, 2026, 21:00 | 72300 |
| April 30, 2026, 20:45 | 72300 |
| April 30, 2026, 20:30 | 72300 |
| April 30, 2026, 20:15 | 72400 |
| April 30, 2026, 20:00 | 72400 |
| April 30, 2026, 19:45 | 72400 |
| April 30, 2026, 19:30 | 72400 |
| April 30, 2026, 19:15 | 72400 |
| April 30, 2026, 19:00 | 72400 |
| April 30, 2026, 18:45 | 72400 |
| April 30, 2026, 18:30 | 72400 |
| April 30, 2026, 18:15 | 72300 |
| April 30, 2026, 18:00 | 72400 |
| April 30, 2026, 17:45 | 72700 |
| April 30, 2026, 17:30 | 72400 |
| April 30, 2026, 17:15 | 72400 |
| April 30, 2026, 17:00 | 72300 |
| April 30, 2026, 16:45 | 72400 |
| April 30, 2026, 16:30 | 72300 |
| April 30, 2026, 16:15 | 72400 |
| April 30, 2026, 16:00 | 72300 |
| April 30, 2026, 15:45 | 72400 |
| April 30, 2026, 15:30 | 72200 |
| April 30, 2026, 15:15 | 72000 |
| April 30, 2026, 15:00 | 71800 |
| April 30, 2026, 14:45 | 71200 |
| April 30, 2026, 14:30 | 70400 |
| April 30, 2026, 14:15 | 70400 |
| April 30, 2026, 14:00 | 69700 |
| April 30, 2026, 13:45 | 69000 |
| April 30, 2026, 13:30 | 68900 |
| April 30, 2026, 13:15 | 68800 |
| April 30, 2026, 13:00 | 68700 |
| April 30, 2026, 12:45 | 68700 |
| April 30, 2026, 12:30 | 68800 |
| April 30, 2026, 12:15 | 68700 |
| April 30, 2026, 12:00 | 68700 |
| April 30, 2026, 11:45 | 68700 |
| April 30, 2026, 11:30 | 68700 |
| April 30, 2026, 11:15 | 68700 |
| April 30, 2026, 11:00 | 68700 |
| April 30, 2026, 10:45 | 68700 |
| April 30, 2026, 10:30 | 68700 |
| Date/Time (UTC) | LockDam_09 Temp-Air F | LockDam_09 Temp-Water F | LockDam_09 Speed-Wind mph | LockDam_09 Dir-Wind deg |
|---|---|---|---|---|
| May 7, 2026, 10:15 | 36 | 60 | 131072 | 0 |
| May 7, 2026, 10:00 | 36 | 60 | 131072 | 0 |
| May 7, 2026, 09:45 | 36 | 60 | 131072 | 0 |
| May 7, 2026, 09:30 | 36 | 60 | 131072 | 0 |
| May 7, 2026, 09:15 | 36 | 60 | 131072 | 0 |
| May 7, 2026, 09:00 | 36 | 60 | 131072 | 0 |
| May 7, 2026, 08:45 | 36 | 60 | 131072 | 0 |
| May 7, 2026, 08:30 | 36 | 60 | 131072 | 0 |
| May 7, 2026, 08:15 | 36 | 60 | 131072 | 0 |
| May 7, 2026, 08:00 | 35 | 60 | 131072 | 0 |
| May 7, 2026, 07:45 | 35 | 60 | 131072 | 0 |
| May 7, 2026, 07:30 | 35 | 60 | 131072 | 0 |
| May 7, 2026, 07:15 | 35 | 60 | 131072 | 0 |
| May 7, 2026, 07:00 | 36 | 60 | 131072 | 0 |
| May 7, 2026, 06:45 | 36 | 60 | 131072 | 0 |
| May 7, 2026, 06:30 | 37 | 60 | 131072 | 0 |
| May 7, 2026, 06:15 | 37 | 60 | 131072 | 0 |
| May 7, 2026, 06:00 | 37 | 60 | 131072 | 0 |
| May 7, 2026, 05:45 | 37 | 60 | 131072 | 0 |
| May 7, 2026, 05:30 | 37 | 60 | 131072 | 0 |
| May 7, 2026, 05:15 | 37 | 60 | 131072 | 0 |
| May 7, 2026, 05:00 | 37 | 60 | 131072 | 0 |
| May 7, 2026, 04:45 | 38 | 60 | 131072 | 0 |
| May 7, 2026, 04:30 | 37 | 60 | 131072 | 0 |
| May 7, 2026, 04:15 | 38 | 60 | 131072 | 0 |
| May 7, 2026, 04:00 | 38 | 60 | 131072 | 0 |
| May 7, 2026, 03:45 | 39 | 60 | 131072 | 0 |
| May 7, 2026, 03:30 | 39 | 60 | 131072 | 0 |
| May 7, 2026, 03:15 | 40 | 60 | 131072 | 0 |
| May 7, 2026, 03:00 | 41 | 60 | 131072 | 0 |
| May 7, 2026, 02:45 | 41 | 60 | 131072 | 0 |
| May 7, 2026, 02:30 | 43 | 60 | 131072 | 0 |
| May 7, 2026, 02:15 | 45 | 60 | 131072 | 0 |
| May 7, 2026, 02:00 | 45 | 60 | 131072 | 0 |
| May 7, 2026, 01:45 | 46 | 60 | 131072 | 0 |
| May 7, 2026, 01:30 | 46 | 60 | 131072 | 0 |
| May 7, 2026, 01:15 | 47 | 60 | 131072 | 0 |
| May 7, 2026, 01:00 | 48 | 60 | 131072 | 0 |
| May 7, 2026, 00:45 | 49 | 60 | 131072 | 0 |
| May 7, 2026, 00:30 | 49 | 61 | 131072 | 0 |
| May 7, 2026, 00:15 | 49 | 60 | 131072 | 0 |
| May 6, 2026, 24:00 | 49 | 61 | 131072 | 0 |
| May 6, 2026, 23:45 | 49 | 61 | 131072 | 0 |
| May 6, 2026, 23:30 | 49 | 61 | 131072 | 0 |
| May 6, 2026, 23:15 | 48 | 61 | 131072 | 0 |
| May 6, 2026, 23:00 | 49 | 61 | 131072 | 0 |
| May 6, 2026, 22:45 | 49 | 61 | 131072 | 0 |
| May 6, 2026, 22:30 | 49 | 61 | 131072 | 0 |
| May 6, 2026, 22:15 | 49 | 61 | 131072 | 0 |
| May 6, 2026, 22:00 | 49 | 61 | 131072 | 0 |
| May 6, 2026, 21:45 | 49 | 61 | 131072 | 0 |
| May 6, 2026, 21:30 | 50 | 61 | 131072 | 0 |
| May 6, 2026, 21:15 | 49 | 61 | 131072 | 0 |
| May 6, 2026, 21:00 | 50 | 61 | 131072 | 0 |
| May 6, 2026, 20:45 | 50 | 61 | 131072 | 0 |
| May 6, 2026, 20:30 | 49 | 61 | 131072 | 0 |
| May 6, 2026, 20:15 | 50 | 61 | 131072 | 0 |
| May 6, 2026, 20:00 | 49 | 61 | 131072 | 0 |
| May 6, 2026, 19:45 | 48 | 61 | 131072 | 0 |
| May 6, 2026, 19:30 | 48 | 61 | 131072 | 0 |
| May 6, 2026, 19:15 | 47 | 61 | 131072 | 0 |
| May 6, 2026, 19:00 | 48 | 61 | 131072 | 0 |
| May 6, 2026, 18:45 | 48 | 61 | 131072 | 0 |
| May 6, 2026, 18:30 | 47 | 61 | 131072 | 0 |
| May 6, 2026, 18:15 | 47 | 61 | 131072 | 0 |
| May 6, 2026, 18:00 | 47 | 61 | 131072 | 0 |
| May 6, 2026, 17:45 | 48 | 61 | 131072 | 0 |
| May 6, 2026, 17:30 | 48 | 61 | 131072 | 0 |
| May 6, 2026, 17:15 | 47 | 61 | 131072 | 0 |
| May 6, 2026, 17:00 | 47 | 61 | 131072 | 0 |
| May 6, 2026, 16:45 | 48 | 61 | 131072 | 0 |
| May 6, 2026, 16:30 | 48 | 61 | 131072 | 0 |
| May 6, 2026, 16:15 | 48 | 61 | 131072 | 0 |
| May 6, 2026, 16:00 | 47 | 61 | 131072 | 0 |
| May 6, 2026, 15:45 | 48 | 61 | 131072 | 0 |
| May 6, 2026, 15:30 | 46 | 61 | 131072 | 0 |
| May 6, 2026, 15:15 | 47 | 61 | 131072 | 0 |
| May 6, 2026, 15:00 | 47 | 61 | 131072 | 0 |
| May 6, 2026, 14:45 | 48 | 61 | 131072 | 0 |
| May 6, 2026, 14:30 | 46 | 61 | 131072 | 0 |
| May 6, 2026, 14:15 | 46 | 61 | 131072 | 0 |
| May 6, 2026, 14:00 | 45 | 61 | 131072 | 0 |
| May 6, 2026, 13:45 | 45 | 61 | 131072 | 0 |
| May 6, 2026, 13:30 | 43 | 61 | 131072 | 0 |
| May 6, 2026, 13:15 | 41 | 61 | 131072 | 0 |
| May 6, 2026, 13:00 | 40 | 61 | 131072 | 0 |
| May 6, 2026, 12:45 | 39 | 61 | 131072 | 0 |
| May 6, 2026, 12:30 | 38 | 61 | 131072 | 0 |
| May 6, 2026, 12:15 | 38 | 61 | 131072 | 0 |
| May 6, 2026, 12:00 | 38 | 61 | 131072 | 0 |
| May 6, 2026, 11:45 | 38 | 61 | 131072 | 0 |
| May 6, 2026, 11:30 | 38 | 61 | 131072 | 0 |
| May 6, 2026, 11:15 | 38 | 61 | 131072 | 0 |
| May 6, 2026, 11:00 | 37 | 61 | 131072 | 0 |
| May 6, 2026, 10:45 | 38 | 61 | 131072 | 0 |
| May 6, 2026, 10:30 | 38 | 61 | 131072 | 0 |
| May 6, 2026, 10:15 | 38 | 61 | 131072 | 0 |
| May 6, 2026, 10:00 | 39 | 61 | 131072 | 0 |
| May 6, 2026, 09:45 | 39 | 61 | 131072 | 0 |
| May 6, 2026, 09:30 | 40 | 61 | 131072 | 0 |
| May 6, 2026, 09:15 | 40 | 61 | 131072 | 0 |
| May 6, 2026, 09:00 | 41 | 61 | 131072 | 0 |
| May 6, 2026, 08:45 | 41 | 61 | 131072 | 0 |
| May 6, 2026, 08:30 | 42 | 61 | 131072 | 0 |
| May 6, 2026, 08:15 | 43 | 61 | 131072 | 0 |
| May 6, 2026, 08:00 | 43 | 61 | 131072 | 0 |
| May 6, 2026, 07:45 | 42 | 61 | 131072 | 0 |
| May 6, 2026, 07:30 | 42 | 61 | 131072 | 0 |
| May 6, 2026, 07:15 | 42 | 61 | 131072 | 0 |
| May 6, 2026, 07:00 | 41 | 61 | 131072 | 0 |
| May 6, 2026, 06:45 | 41 | 61 | 131072 | 0 |
| May 6, 2026, 06:30 | 42 | 61 | 131072 | 0 |
| May 6, 2026, 06:15 | 43 | 61 | 131072 | 0 |
| May 6, 2026, 06:00 | 43 | 61 | 131072 | 0 |
| May 6, 2026, 05:45 | 43 | 61 | 131072 | 0 |
| May 6, 2026, 05:30 | 43 | 61 | 131072 | 0 |
| May 6, 2026, 05:15 | 44 | 61 | 131072 | 0 |
| May 6, 2026, 05:00 | 44 | 61 | 131072 | 0 |
| May 6, 2026, 04:45 | 44 | 61 | 131072 | 0 |
| May 6, 2026, 04:30 | 44 | 61 | 131072 | 0 |
| May 6, 2026, 04:15 | 45 | 61 | 131072 | 0 |
| May 6, 2026, 04:00 | 46 | 61 | 131072 | 0 |
| May 6, 2026, 03:45 | 47 | 61 | 131072 | 0 |
| May 6, 2026, 03:30 | 48 | 61 | 131072 | 0 |
| May 6, 2026, 03:15 | 47 | 61 | 131072 | 0 |
| May 6, 2026, 03:00 | 48 | 61 | 131072 | 0 |
| May 6, 2026, 02:45 | 49 | 61 | 131072 | 0 |
| May 6, 2026, 02:30 | 49 | 61 | 131072 | 0 |
| May 6, 2026, 02:15 | 49 | 61 | 131072 | 0 |
| May 6, 2026, 02:00 | 50 | 61 | 131072 | 0 |
| May 6, 2026, 01:45 | 50 | 61 | 131072 | 0 |
| May 6, 2026, 01:30 | 51 | 61 | 131072 | 0 |
| May 6, 2026, 01:15 | 52 | 61 | 131072 | 0 |
| May 6, 2026, 01:00 | 52 | 61 | 131072 | 0 |
| May 6, 2026, 00:45 | 53 | 61 | 131072 | 0 |
| May 6, 2026, 00:30 | 53 | 61 | 131072 | 0 |
| May 6, 2026, 00:15 | 54 | 61 | 131072 | 0 |
| May 5, 2026, 24:00 | 55 | 61 | 131072 | 0 |
| May 5, 2026, 23:45 | 55 | 61 | 131072 | 0 |
| May 5, 2026, 23:30 | 56 | 61 | 131072 | 0 |
| May 5, 2026, 23:15 | 56 | 61 | 131072 | 0 |
| May 5, 2026, 23:00 | 57 | 61 | 131072 | 0 |
| May 5, 2026, 22:45 | 57 | 61 | 131072 | 0 |
| May 5, 2026, 22:30 | 57 | 61 | 131072 | 0 |
| May 5, 2026, 22:15 | 58 | 61 | 131072 | 0 |
| May 5, 2026, 22:00 | 59 | 61 | 131072 | 0 |
| May 5, 2026, 21:45 | 58 | 61 | 131072 | 0 |
| May 5, 2026, 21:30 | 59 | 61 | 131072 | 0 |
| May 5, 2026, 21:15 | 58 | 61 | 131072 | 0 |
| May 5, 2026, 21:00 | 60 | 61 | 131072 | 0 |
| May 5, 2026, 20:45 | 58 | 62 | 131072 | 0 |
| May 5, 2026, 20:30 | 58 | 62 | 131072 | 0 |
| May 5, 2026, 20:15 | 57 | 62 | 131072 | 0 |
| May 5, 2026, 20:00 | 56 | 62 | 131072 | 0 |
| May 5, 2026, 19:45 | 56 | 62 | 131072 | 0 |
| May 5, 2026, 19:30 | 56 | 62 | 131072 | 0 |
| May 5, 2026, 19:15 | 56 | 62 | 131072 | 0 |
| May 5, 2026, 19:00 | 55 | 62 | 131072 | 0 |
| May 5, 2026, 18:45 | 57 | 62 | 131072 | 0 |
| May 5, 2026, 18:30 | 56 | 62 | 131072 | 0 |
| May 5, 2026, 18:15 | 55 | 62 | 131072 | 0 |
| May 5, 2026, 18:00 | 56 | 62 | 131072 | 0 |
| May 5, 2026, 17:45 | 56 | 62 | 131072 | 0 |
| May 5, 2026, 17:30 | 55 | 62 | 131072 | 0 |
| May 5, 2026, 17:15 | 55 | 62 | 131072 | 0 |
| May 5, 2026, 17:00 | 56 | 62 | 131072 | 0 |
| May 5, 2026, 16:45 | 54 | 62 | 131072 | 0 |
| May 5, 2026, 16:30 | 53 | 62 | 131072 | 0 |
| May 5, 2026, 16:15 | 53 | 62 | 131072 | 0 |
| May 5, 2026, 16:00 | 53 | 62 | 131072 | 0 |
| May 5, 2026, 15:45 | 53 | 62 | 131072 | 0 |
| May 5, 2026, 15:30 | 54 | 62 | 131072 | 0 |
| May 5, 2026, 15:15 | 54 | 62 | 131072 | 0 |
| May 5, 2026, 15:00 | 53 | 62 | 131072 | 0 |
| May 5, 2026, 14:45 | 51 | 62 | 131072 | 0 |
| May 5, 2026, 14:30 | 52 | 62 | 131072 | 0 |
| May 5, 2026, 14:15 | 52 | 62 | 131072 | 0 |
| May 5, 2026, 14:00 | 50 | 62 | 131072 | 0 |
| May 5, 2026, 13:45 | 49 | 62 | 131072 | 0 |
| May 5, 2026, 13:30 | 46 | 62 | 131072 | 0 |
| May 5, 2026, 13:15 | 45 | 62 | 131072 | 0 |
| May 5, 2026, 13:00 | 45 | 62 | 131072 | 0 |
| May 5, 2026, 12:45 | 45 | 62 | 131072 | 0 |
| May 5, 2026, 12:30 | 44 | 62 | 131072 | 0 |
| May 5, 2026, 12:15 | 44 | 62 | 131072 | 0 |
| May 5, 2026, 12:00 | 44 | 62 | 131072 | 0 |
| May 5, 2026, 11:45 | 43 | 62 | 131072 | 0 |
| May 5, 2026, 11:30 | 43 | 62 | 131072 | 0 |
| May 5, 2026, 11:15 | 43 | 62 | 131072 | 0 |
| May 5, 2026, 11:00 | 44 | 62 | 131072 | 0 |
| May 5, 2026, 10:45 | 45 | 62 | 131072 | 0 |
| May 5, 2026, 10:30 | 45 | 62 | 131072 | 0 |
| May 5, 2026, 10:15 | 45 | 62 | 131072 | 0 |
| May 5, 2026, 10:00 | 46 | 62 | 131072 | 0 |
| May 5, 2026, 09:45 | 46 | 62 | 131072 | 0 |
| May 5, 2026, 09:30 | 47 | 62 | 131072 | 0 |
| May 5, 2026, 09:15 | 47 | 62 | 131072 | 0 |
| May 5, 2026, 09:00 | 47 | 62 | 131072 | 0 |
| May 5, 2026, 08:45 | 47 | 62 | 131072 | 0 |
| May 5, 2026, 08:30 | 47 | 62 | 131072 | 0 |
| May 5, 2026, 08:15 | 48 | 62 | 131072 | 0 |
| May 5, 2026, 08:00 | 48 | 62 | 131072 | 0 |
| May 5, 2026, 07:45 | 48 | 62 | 131072 | 0 |
| May 5, 2026, 07:30 | 49 | 62 | 131072 | 0 |
| May 5, 2026, 07:15 | 49 | 62 | 131072 | 0 |
| May 5, 2026, 07:00 | 50 | 62 | 131072 | 0 |
| May 5, 2026, 06:45 | 50 | 62 | 131072 | 0 |
| May 5, 2026, 06:30 | 50 | 62 | 131072 | 0 |
| May 5, 2026, 06:15 | 51 | 62 | 131072 | 0 |
| May 5, 2026, 06:00 | 51 | 62 | 131072 | 0 |
| May 5, 2026, 05:45 | 52 | 62 | 131072 | 0 |
| May 5, 2026, 05:30 | 52 | 62 | 131072 | 0 |
| May 5, 2026, 05:15 | 53 | 62 | 131072 | 0 |
| May 5, 2026, 05:00 | 53 | 62 | 131072 | 0 |
| May 5, 2026, 04:45 | 53 | 62 | 131072 | 0 |
| May 5, 2026, 04:30 | 54 | 62 | 131072 | 0 |
| May 5, 2026, 04:15 | 54 | 62 | 131072 | 0 |
| May 5, 2026, 04:00 | 55 | 62 | 131072 | 0 |
| May 5, 2026, 03:45 | 56 | 62 | 131072 | 0 |
| May 5, 2026, 03:30 | 57 | 62 | 131072 | 0 |
| May 5, 2026, 03:15 | 57 | 62 | 131072 | 0 |
| May 5, 2026, 03:00 | 58 | 62 | 131072 | 0 |
| May 5, 2026, 02:45 | 58 | 62 | 131072 | 0 |
| May 5, 2026, 02:30 | 59 | 62 | 131072 | 0 |
| May 5, 2026, 02:15 | 59 | 62 | 131072 | 0 |
| May 5, 2026, 02:00 | 60 | 62 | 131072 | 0 |
| May 5, 2026, 01:45 | 61 | 62 | 131072 | 0 |
| May 5, 2026, 01:30 | 61 | 62 | 131072 | 0 |
| May 5, 2026, 01:15 | 62 | 62 | 131072 | 0 |
| May 5, 2026, 01:00 | 62 | 62 | 131072 | 0 |
| May 5, 2026, 00:45 | 63 | 62 | 131072 | 0 |
| May 5, 2026, 00:30 | 63 | 62 | 131072 | 0 |
| May 5, 2026, 00:15 | 64 | 62 | 131072 | 0 |
| May 4, 2026, 24:00 | 65 | 62 | 131072 | 0 |
| May 4, 2026, 23:45 | 65 | 62 | 131072 | 0 |
| May 4, 2026, 23:30 | 66 | 62 | 131072 | 0 |
| May 4, 2026, 23:15 | 67 | 61 | 131072 | 0 |
| May 4, 2026, 23:00 | 67 | 61 | 131072 | 0 |
| May 4, 2026, 22:45 | 68 | 62 | 131072 | 0 |
| May 4, 2026, 22:30 | 70 | 61 | 131072 | 0 |
| May 4, 2026, 22:15 | 72 | 61 | 131072 | 0 |
| May 4, 2026, 22:00 | 72 | 61 | 131072 | 0 |
| May 4, 2026, 21:45 | 73 | 61 | 131072 | 0 |
| May 4, 2026, 21:30 | 74 | 61 | 131072 | 0 |
| May 4, 2026, 21:15 | 74 | 61 | 131072 | 0 |
| May 4, 2026, 21:00 | 77 | 61 | 131072 | 0 |
| May 4, 2026, 20:45 | 77 | 61 | 131072 | 0 |
| May 4, 2026, 20:30 | 76 | 61 | 131072 | 0 |
| May 4, 2026, 20:15 | 75 | 61 | 131072 | 0 |
| May 4, 2026, 20:00 | 75 | 61 | 131072 | 0 |
| May 4, 2026, 19:45 | 76 | 61 | 131072 | 0 |
| May 4, 2026, 19:30 | 78 | 61 | 131072 | 0 |
| May 4, 2026, 19:15 | 78 | 61 | 131072 | 0 |
| May 4, 2026, 19:00 | 77 | 61 | 131072 | 0 |
| May 4, 2026, 18:45 | 78 | 61 | 131072 | 0 |
| May 4, 2026, 18:30 | 77 | 61 | 131072 | 0 |
| May 4, 2026, 18:15 | 78 | 61 | 131072 | 0 |
| May 4, 2026, 18:00 | 78 | 61 | 131072 | 0 |
| May 4, 2026, 17:45 | 76 | 61 | 131072 | 0 |
| May 4, 2026, 17:30 | 75 | 61 | 131072 | 0 |
| May 4, 2026, 17:15 | 74 | 61 | 131072 | 0 |
| May 4, 2026, 17:00 | 76 | 61 | 131072 | 0 |
| May 4, 2026, 16:45 | 75 | 61 | 131072 | 0 |
| May 4, 2026, 16:30 | 74 | 61 | 131072 | 0 |
| May 4, 2026, 16:15 | 74 | 61 | 131072 | 0 |
| May 4, 2026, 16:00 | 73 | 61 | 131072 | 0 |
| May 4, 2026, 15:45 | 73 | 61 | 131072 | 0 |
| May 4, 2026, 15:30 | 72 | 62 | 131072 | 0 |
| May 4, 2026, 15:15 | 71 | 62 | 131072 | 0 |
| May 4, 2026, 15:00 | 70 | 62 | 131072 | 0 |
| May 4, 2026, 14:45 | 69 | 62 | 131072 | 0 |
| May 4, 2026, 14:30 | 67 | 62 | 131072 | 0 |
| May 4, 2026, 14:15 | 65 | 62 | 131072 | 0 |
| May 4, 2026, 14:00 | 63 | 62 | 131072 | 0 |
| May 4, 2026, 13:45 | 62 | 62 | 131072 | 0 |
| May 4, 2026, 13:30 | 59 | 62 | 131072 | 0 |
| May 4, 2026, 13:15 | 57 | 62 | 131072 | 0 |
| May 4, 2026, 13:00 | 54 | 62 | 131072 | 0 |
| May 4, 2026, 12:45 | 51 | 62 | 131072 | 0 |
| May 4, 2026, 12:30 | 50 | 62 | 131072 | 0 |
| May 4, 2026, 12:15 | 50 | 62 | 131072 | 0 |
| May 4, 2026, 12:00 | 49 | 62 | 131072 | 0 |
| May 4, 2026, 11:45 | 48 | 62 | 131072 | 0 |
| May 4, 2026, 11:30 | 48 | 62 | 131072 | 0 |
| May 4, 2026, 11:15 | 49 | 62 | 131072 | 0 |
| May 4, 2026, 11:00 | 48 | 62 | 131072 | 0 |
| May 4, 2026, 10:45 | 48 | 62 | 131072 | 0 |
| May 4, 2026, 10:30 | 48 | 62 | 131072 | 0 |
| May 4, 2026, 10:15 | 48 | 62 | 131072 | 0 |
| May 4, 2026, 10:00 | 48 | 62 | 131072 | 0 |
| May 4, 2026, 09:45 | 48 | 62 | 131072 | 0 |
| May 4, 2026, 09:30 | 48 | 62 | 131072 | 0 |
| May 4, 2026, 09:15 | 48 | 62 | 131072 | 0 |
| May 4, 2026, 09:00 | 49 | 62 | 131072 | 0 |
| May 4, 2026, 08:45 | 49 | 61 | 131072 | 0 |
| May 4, 2026, 08:30 | 49 | 61 | 131072 | 0 |
| May 4, 2026, 08:15 | 49 | 61 | 131072 | 0 |
| May 4, 2026, 08:00 | 49 | 61 | 131072 | 0 |
| May 4, 2026, 07:45 | 49 | 61 | 131072 | 0 |
| May 4, 2026, 07:30 | 50 | 61 | 131072 | 0 |
| May 4, 2026, 07:15 | 50 | 61 | 131072 | 0 |
| May 4, 2026, 07:00 | 50 | 61 | 131072 | 0 |
| May 4, 2026, 06:45 | 51 | 61 | 131072 | 0 |
| May 4, 2026, 06:30 | 51 | 61 | 131072 | 0 |
| May 4, 2026, 06:15 | 51 | 61 | 131072 | 0 |
| May 4, 2026, 06:00 | 52 | 61 | 131072 | 0 |
| May 4, 2026, 05:45 | 52 | 61 | 131072 | 0 |
| May 4, 2026, 05:30 | 53 | 61 | 131072 | 0 |
| May 4, 2026, 05:15 | 53 | 61 | 131072 | 0 |
| May 4, 2026, 05:00 | 53 | 61 | 131072 | 0 |
| May 4, 2026, 04:45 | 53 | 61 | 131072 | 0 |
| May 4, 2026, 04:30 | 53 | 61 | 131072 | 0 |
| May 4, 2026, 04:15 | 54 | 61 | 131072 | 0 |
| May 4, 2026, 04:00 | 54 | 61 | 131072 | 0 |
| May 4, 2026, 03:45 | 55 | 61 | 131072 | 0 |
| May 4, 2026, 03:30 | 55 | 61 | 131072 | 0 |
| May 4, 2026, 03:15 | 56 | 60 | 131072 | 0 |
| May 4, 2026, 03:00 | 57 | 60 | 131072 | 0 |
| May 4, 2026, 02:45 | 57 | 60 | 131072 | 0 |
| May 4, 2026, 02:30 | 59 | 60 | 131072 | 0 |
| May 4, 2026, 02:15 | 60 | 60 | 131072 | 0 |
| May 4, 2026, 02:00 | 62 | 60 | 131072 | 0 |
| May 4, 2026, 01:45 | 65 | 60 | 131072 | 0 |
| May 4, 2026, 01:30 | 66 | 60 | 131072 | 0 |
| May 4, 2026, 01:15 | 68 | 60 | 131072 | 0 |
| May 4, 2026, 01:00 | 71 | 60 | 131072 | 0 |
| May 4, 2026, 00:45 | 73 | 60 | 131072 | 0 |
| May 4, 2026, 00:30 | 74 | 60 | 131072 | 0 |
| May 4, 2026, 00:15 | 75 | 60 | 131072 | 0 |
| May 3, 2026, 24:00 | 75 | 60 | 131072 | 0 |
| May 3, 2026, 23:45 | 75 | 60 | 131072 | 0 |
| May 3, 2026, 23:30 | 75 | 60 | 131072 | 0 |
| May 3, 2026, 23:15 | 76 | 60 | 131072 | 0 |
| May 3, 2026, 23:00 | 75 | 60 | 131072 | 0 |
| May 3, 2026, 22:45 | 76 | 60 | 131072 | 0 |
| May 3, 2026, 22:30 | 76 | 60 | 131072 | 0 |
| May 3, 2026, 22:15 | 76 | 60 | 131072 | 0 |
| May 3, 2026, 22:00 | 76 | 60 | 131072 | 0 |
| May 3, 2026, 21:45 | 76 | 59 | 131072 | 0 |
| May 3, 2026, 21:30 | 77 | 59 | 131072 | 0 |
| May 3, 2026, 21:15 | 76 | 59 | 131072 | 0 |
| May 3, 2026, 21:00 | 77 | 59 | 131072 | 0 |
| May 3, 2026, 20:45 | 77 | 59 | 131072 | 0 |
| May 3, 2026, 20:30 | 75 | 59 | 131072 | 0 |
| May 3, 2026, 20:15 | 75 | 59 | 131072 | 0 |
| May 3, 2026, 20:00 | 74 | 59 | 131072 | 0 |
| May 3, 2026, 19:45 | 74 | 59 | 131072 | 0 |
| May 3, 2026, 19:30 | 74 | 59 | 131072 | 0 |
| May 3, 2026, 19:15 | 74 | 59 | 131072 | 0 |
| May 3, 2026, 19:00 | 71 | 59 | 131072 | 0 |
| May 3, 2026, 18:45 | 72 | 59 | 131072 | 0 |
| May 3, 2026, 18:30 | 70 | 59 | 131072 | 0 |
| May 3, 2026, 18:15 | 69 | 59 | 131072 | 0 |
| May 3, 2026, 18:00 | 69 | 59 | 131072 | 0 |
| May 3, 2026, 17:45 | 69 | 59 | 131072 | 0 |
| May 3, 2026, 17:30 | 68 | 59 | 131072 | 0 |
| May 3, 2026, 17:15 | 67 | 59 | 131072 | 0 |
| May 3, 2026, 17:00 | 65 | 59 | 131072 | 0 |
| May 3, 2026, 16:45 | 65 | 59 | 131072 | 0 |
| May 3, 2026, 16:30 | 64 | 59 | 131072 | 0 |
| May 3, 2026, 16:15 | 63 | 59 | 131072 | 0 |
| May 3, 2026, 16:00 | 62 | 59 | 131072 | 0 |
| May 3, 2026, 15:45 | 62 | 59 | 131072 | 0 |
| May 3, 2026, 15:30 | 61 | 59 | 131072 | 0 |
| May 3, 2026, 15:15 | 61 | 59 | 131072 | 0 |
| May 3, 2026, 15:00 | 60 | 59 | 131072 | 0 |
| May 3, 2026, 14:45 | 59 | 59 | 131072 | 0 |
| May 3, 2026, 14:30 | 58 | 59 | 131072 | 0 |
| May 3, 2026, 14:15 | 59 | 59 | 131072 | 0 |
| May 3, 2026, 14:00 | 58 | 59 | 131072 | 0 |
| May 3, 2026, 13:45 | 57 | 59 | 131072 | 0 |
| May 3, 2026, 13:30 | 56 | 59 | 131072 | 0 |
| May 3, 2026, 13:15 | 56 | 59 | 131072 | 0 |
| May 3, 2026, 13:00 | 53 | 59 | 131072 | 0 |
| May 3, 2026, 12:45 | 52 | 59 | 131072 | 0 |
| May 3, 2026, 12:30 | 53 | 59 | 131072 | 0 |
| May 3, 2026, 12:15 | 53 | 59 | 131072 | 0 |
| May 3, 2026, 12:00 | 52 | 59 | 131072 | 0 |
| May 3, 2026, 11:45 | 52 | 59 | 131072 | 0 |
| May 3, 2026, 11:30 | 52 | 59 | 131072 | 0 |
| May 3, 2026, 11:15 | 55 | 59 | 131072 | 0 |
| May 3, 2026, 11:00 | 55 | 59 | 131072 | 0 |
| May 3, 2026, 10:45 | 55 | 59 | 131072 | 0 |
| May 3, 2026, 10:30 | 55 | 59 | 131072 | 0 |
| May 3, 2026, 10:15 | 55 | 59 | 131072 | 0 |
| May 3, 2026, 10:00 | 55 | 59 | 131072 | 0 |
| May 3, 2026, 09:45 | 54 | 59 | 131072 | 0 |
| May 3, 2026, 09:30 | 53 | 59 | 131072 | 0 |
| May 3, 2026, 09:15 | 55 | 59 | 131072 | 0 |
| May 3, 2026, 09:00 | 54 | 59 | 131072 | 0 |
| May 3, 2026, 08:45 | 54 | 59 | 131072 | 0 |
| May 3, 2026, 08:30 | 54 | 59 | 131072 | 0 |
| May 3, 2026, 08:15 | 54 | 59 | 131072 | 0 |
| May 3, 2026, 08:00 | 54 | 59 | 131072 | 0 |
| May 3, 2026, 07:45 | 54 | 59 | 131072 | 0 |
| May 3, 2026, 07:30 | 54 | 59 | 131072 | 0 |
| May 3, 2026, 07:15 | 54 | 59 | 131072 | 0 |
| May 3, 2026, 07:00 | 54 | 59 | 131072 | 0 |
| May 3, 2026, 06:45 | 54 | 59 | 131072 | 0 |
| May 3, 2026, 06:30 | 54 | 59 | 131072 | 0 |
| May 3, 2026, 06:15 | 54 | 59 | 131072 | 0 |
| May 3, 2026, 06:00 | 54 | 59 | 131072 | 0 |
| May 3, 2026, 05:45 | 54 | 59 | 131072 | 0 |
| May 3, 2026, 05:30 | 54 | 59 | 131072 | 0 |
| May 3, 2026, 05:15 | 54 | 59 | 131072 | 0 |
| May 3, 2026, 05:00 | 54 | 59 | 131072 | 0 |
| May 3, 2026, 04:45 | 54 | 59 | 131072 | 0 |
| May 3, 2026, 04:30 | 54 | 59 | 131072 | 0 |
| May 3, 2026, 04:15 | 55 | 59 | 131072 | 0 |
| May 3, 2026, 04:00 | 55 | 59 | 131072 | 0 |
| May 3, 2026, 03:45 | 55 | 59 | 131072 | 0 |
| May 3, 2026, 03:30 | 56 | 59 | 131072 | 0 |
| May 3, 2026, 03:15 | 56 | 59 | 131072 | 0 |
| May 3, 2026, 03:00 | 56 | 59 | 131072 | 0 |
| May 3, 2026, 02:45 | 56 | 59 | 131072 | 0 |
| May 3, 2026, 02:30 | 56 | 59 | 131072 | 0 |
| May 3, 2026, 02:15 | 56 | 59 | 131072 | 0 |
| May 3, 2026, 02:00 | 57 | 59 | 131072 | 0 |
| May 3, 2026, 01:45 | 57 | 59 | 131072 | 0 |
| May 3, 2026, 01:30 | 58 | 59 | 131072 | 0 |
| May 3, 2026, 01:15 | 59 | 59 | 131072 | 0 |
| May 3, 2026, 01:00 | 60 | 59 | 131072 | 0 |
| May 3, 2026, 00:45 | 61 | 59 | 131072 | 0 |
| May 3, 2026, 00:30 | 61 | 59 | 131072 | 0 |
| May 3, 2026, 00:15 | 62 | 59 | 131072 | 0 |
| May 2, 2026, 24:00 | 63 | 59 | 131072 | 0 |
| May 2, 2026, 23:45 | 63 | 59 | 131072 | 0 |
| May 2, 2026, 23:30 | 63 | 59 | 131072 | 0 |
| May 2, 2026, 23:15 | 63 | 59 | 131072 | 0 |
| May 2, 2026, 23:00 | 63 | 59 | 131072 | 0 |
| May 2, 2026, 22:45 | 63 | 59 | 131072 | 0 |
| May 2, 2026, 22:30 | 63 | 59 | 131072 | 0 |
| May 2, 2026, 22:15 | 64 | 59 | 131072 | 0 |
| May 2, 2026, 22:00 | 64 | 59 | 131072 | 0 |
| May 2, 2026, 21:45 | 63 | 59 | 131072 | 0 |
| May 2, 2026, 21:30 | 63 | 59 | 131072 | 0 |
| May 2, 2026, 21:15 | 62 | 59 | 131072 | 0 |
| May 2, 2026, 21:00 | 62 | 59 | 131072 | 0 |
| May 2, 2026, 20:45 | 60 | 59 | 131072 | 0 |
| May 2, 2026, 20:30 | 62 | 59 | 131072 | 0 |
| May 2, 2026, 20:15 | 62 | 59 | 131072 | 0 |
| May 2, 2026, 20:00 | 63 | 59 | 131072 | 0 |
| May 2, 2026, 19:45 | 62 | 59 | 131072 | 0 |
| May 2, 2026, 19:30 | 62 | 59 | 131072 | 0 |
| May 2, 2026, 19:15 | 61 | 59 | 131072 | 0 |
| May 2, 2026, 19:00 | 59 | 59 | 131072 | 0 |
| May 2, 2026, 18:45 | 60 | 59 | 131072 | 0 |
| May 2, 2026, 18:30 | 58 | 59 | 131072 | 0 |
| May 2, 2026, 18:15 | 58 | 59 | 131072 | 0 |
| May 2, 2026, 18:00 | 60 | 59 | 131072 | 0 |
| May 2, 2026, 17:45 | 60 | 59 | 131072 | 0 |
| May 2, 2026, 17:30 | 59 | 59 | 131072 | 0 |
| May 2, 2026, 17:15 | 57 | 59 | 131072 | 0 |
| May 2, 2026, 17:00 | 58 | 59 | 131072 | 0 |
| May 2, 2026, 16:45 | 57 | 59 | 131072 | 0 |
| May 2, 2026, 16:30 | 58 | 59 | 131072 | 0 |
| May 2, 2026, 16:15 | 57 | 59 | 131072 | 0 |
| May 2, 2026, 16:00 | 56 | 59 | 131072 | 0 |
| May 2, 2026, 15:45 | 57 | 59 | 131072 | 0 |
| May 2, 2026, 15:30 | 55 | 59 | 131072 | 0 |
| May 2, 2026, 15:15 | 55 | 59 | 131072 | 0 |
| May 2, 2026, 15:00 | 52 | 59 | 131072 | 0 |
| May 2, 2026, 14:45 | 51 | 59 | 131072 | 0 |
| May 2, 2026, 14:30 | 50 | 59 | 131072 | 0 |
| May 2, 2026, 14:15 | 48 | 59 | 131072 | 0 |
| May 2, 2026, 14:00 | 46 | 59 | 131072 | 0 |
| May 2, 2026, 13:45 | 44 | 59 | 131072 | 0 |
| May 2, 2026, 13:30 | 41 | 59 | 131072 | 0 |
| May 2, 2026, 13:15 | 40 | 59 | 131072 | 0 |
| May 2, 2026, 13:00 | 40 | 59 | 131072 | 0 |
| May 2, 2026, 12:45 | 40 | 59 | 131072 | 0 |
| May 2, 2026, 12:30 | 40 | 59 | 131072 | 0 |
| May 2, 2026, 12:15 | 40 | 59 | 131072 | 0 |
| May 2, 2026, 12:00 | 39 | 59 | 131072 | 0 |
| May 2, 2026, 11:45 | 38 | 59 | 131072 | 0 |
| May 2, 2026, 11:30 | 37 | 59 | 131072 | 0 |
| May 2, 2026, 11:15 | 37 | 59 | 131072 | 0 |
| May 2, 2026, 11:00 | 36 | 59 | 131072 | 0 |
| May 2, 2026, 10:45 | 36 | 59 | 131072 | 0 |
| May 2, 2026, 10:30 | 36 | 59 | 131072 | 0 |
| May 2, 2026, 10:15 | 36 | 59 | 131072 | 0 |
| May 2, 2026, 10:00 | 37 | 59 | 131072 | 0 |
| May 2, 2026, 09:45 | 37 | 59 | 131072 | 0 |
| May 2, 2026, 09:30 | 37 | 59 | 131072 | 0 |
| May 2, 2026, 09:15 | 37 | 59 | 131072 | 0 |
| May 2, 2026, 09:00 | 37 | 59 | 131072 | 0 |
| May 2, 2026, 08:45 | 36 | 59 | 131072 | 0 |
| May 2, 2026, 08:30 | 36 | 59 | 131072 | 0 |
| May 2, 2026, 08:15 | 36 | 59 | 131072 | 0 |
| May 2, 2026, 08:00 | 36 | 59 | 131072 | 0 |
| May 2, 2026, 07:45 | 37 | 59 | 131072 | 0 |
| May 2, 2026, 07:30 | 38 | 59 | 131072 | 0 |
| May 2, 2026, 07:15 | 38 | 59 | 131072 | 0 |
| May 2, 2026, 07:00 | 38 | 59 | 131072 | 0 |
| May 2, 2026, 06:45 | 39 | 59 | 131072 | 0 |
| May 2, 2026, 06:30 | 39 | 59 | 131072 | 0 |
| May 2, 2026, 06:15 | 40 | 59 | 131072 | 0 |
| May 2, 2026, 06:00 | 40 | 59 | 131072 | 0 |
| May 2, 2026, 05:45 | 40 | 59 | 131072 | 0 |
| May 2, 2026, 05:30 | 40 | 59 | 131072 | 0 |
| May 2, 2026, 05:15 | 40 | 59 | 131072 | 0 |
| May 2, 2026, 05:00 | 40 | 59 | 131072 | 0 |
| May 2, 2026, 04:45 | 41 | 59 | 131072 | 0 |
| May 2, 2026, 04:30 | 42 | 59 | 131072 | 0 |
| May 2, 2026, 04:15 | 42 | 59 | 131072 | 0 |
| May 2, 2026, 04:00 | 42 | 59 | 131072 | 0 |
| May 2, 2026, 03:45 | 43 | 59 | 131072 | 0 |
| May 2, 2026, 03:30 | 45 | 59 | 131072 | 0 |
| May 2, 2026, 03:15 | 46 | 59 | 131072 | 0 |
| May 2, 2026, 03:00 | 47 | 59 | 131072 | 0 |
| May 2, 2026, 02:45 | 46 | 59 | 131072 | 0 |
| May 2, 2026, 02:30 | 48 | 59 | 131072 | 0 |
| May 2, 2026, 02:15 | 48 | 59 | 131072 | 0 |
| May 2, 2026, 02:00 | 49 | 59 | 131072 | 0 |
| May 2, 2026, 01:45 | 49 | 59 | 131072 | 0 |
| May 2, 2026, 01:30 | 50 | 59 | 131072 | 0 |
| May 2, 2026, 01:15 | 52 | 59 | 131072 | 0 |
| May 2, 2026, 01:00 | 52 | 59 | 131072 | 0 |
| May 2, 2026, 00:45 | 54 | 59 | 131072 | 0 |
| May 2, 2026, 00:30 | 55 | 59 | 131072 | 0 |
| May 2, 2026, 00:15 | 55 | 59 | 131072 | 0 |
| May 1, 2026, 24:00 | 56 | 59 | 131072 | 0 |
| May 1, 2026, 23:45 | 56 | 59 | 131072 | 0 |
| May 1, 2026, 23:30 | 56 | 59 | 131072 | 0 |
| May 1, 2026, 23:15 | 56 | 59 | 131072 | 0 |
| May 1, 2026, 23:00 | 56 | 59 | 131072 | 0 |
| May 1, 2026, 22:45 | 56 | 59 | 131072 | 0 |
| May 1, 2026, 22:30 | 57 | 59 | 131072 | 0 |
| May 1, 2026, 22:15 | 56 | 59 | 131072 | 0 |
| May 1, 2026, 22:00 | 56 | 59 | 131072 | 0 |
| May 1, 2026, 21:45 | 55 | 59 | 131072 | 0 |
| May 1, 2026, 21:30 | 56 | 59 | 131072 | 0 |
| May 1, 2026, 21:15 | 54 | 59 | 131072 | 0 |
| May 1, 2026, 21:00 | 54 | 59 | 131072 | 0 |
| May 1, 2026, 20:45 | 54 | 59 | 131072 | 0 |
| May 1, 2026, 20:30 | 55 | 59 | 131072 | 0 |
| May 1, 2026, 20:15 | 55 | 59 | 131072 | 0 |
| May 1, 2026, 20:00 | 57 | 59 | 131072 | 0 |
| May 1, 2026, 19:45 | 55 | 59 | 131072 | 0 |
| May 1, 2026, 19:30 | 54 | 59 | 131072 | 0 |
| May 1, 2026, 19:15 | 54 | 59 | 131072 | 0 |
| May 1, 2026, 19:00 | 54 | 59 | 131072 | 0 |
| May 1, 2026, 18:45 | 52 | 59 | 131072 | 0 |
| May 1, 2026, 18:30 | 52 | 59 | 131072 | 0 |
| May 1, 2026, 18:15 | 53 | 59 | 131072 | 0 |
| May 1, 2026, 18:00 | 52 | 59 | 131072 | 0 |
| May 1, 2026, 17:45 | 54 | 59 | 131072 | 0 |
| May 1, 2026, 17:30 | 51 | 59 | 131072 | 0 |
| May 1, 2026, 17:15 | 52 | 59 | 131072 | 0 |
| May 1, 2026, 17:00 | 53 | 59 | 131072 | 0 |
| May 1, 2026, 16:45 | 53 | 59 | 131072 | 0 |
| May 1, 2026, 16:30 | 53 | 59 | 131072 | 0 |
| May 1, 2026, 16:15 | 53 | 59 | 131072 | 0 |
| May 1, 2026, 16:00 | 53 | 59 | 131072 | 0 |
| May 1, 2026, 15:45 | 51 | 59 | 131072 | 0 |
| May 1, 2026, 15:30 | 51 | 59 | 131072 | 0 |
| May 1, 2026, 15:15 | 50 | 59 | 131072 | 0 |
| May 1, 2026, 15:00 | 49 | 59 | 131072 | 0 |
| May 1, 2026, 14:45 | 48 | 59 | 131072 | 0 |
| May 1, 2026, 14:30 | 47 | 60 | 131072 | 0 |
| May 1, 2026, 14:15 | 46 | 60 | 131072 | 0 |
| May 1, 2026, 14:00 | 46 | 60 | 131072 | 0 |
| May 1, 2026, 13:45 | 44 | 60 | 131072 | 0 |
| May 1, 2026, 13:30 | 40 | 60 | 131072 | 0 |
| May 1, 2026, 13:15 | 40 | 60 | 131072 | 0 |
| May 1, 2026, 13:00 | 39 | 60 | 131072 | 0 |
| May 1, 2026, 12:45 | 39 | 60 | 131072 | 0 |
| May 1, 2026, 12:30 | 39 | 60 | 131072 | 0 |
| May 1, 2026, 12:15 | 39 | 60 | 131072 | 0 |
| May 1, 2026, 12:00 | 39 | 60 | 131072 | 0 |
| May 1, 2026, 11:45 | 39 | 60 | 131072 | 0 |
| May 1, 2026, 11:30 | 39 | 60 | 131072 | 0 |
| May 1, 2026, 11:15 | 39 | 60 | 131072 | 0 |
| May 1, 2026, 11:00 | 38 | 60 | 131072 | 0 |
| May 1, 2026, 10:45 | 38 | 60 | 131072 | 0 |
| May 1, 2026, 10:30 | 38 | 60 | 131072 | 0 |
| May 1, 2026, 10:15 | 38 | 60 | 131072 | 0 |
| May 1, 2026, 10:00 | 38 | 60 | 131072 | 0 |
| May 1, 2026, 09:45 | 39 | 60 | 131072 | 0 |
| May 1, 2026, 09:30 | 39 | 60 | 131072 | 0 |
| May 1, 2026, 09:15 | 38 | 60 | 131072 | 0 |
| May 1, 2026, 09:00 | 38 | 60 | 131072 | 0 |
| May 1, 2026, 08:45 | 38 | 60 | 131072 | 0 |
| May 1, 2026, 08:30 | 38 | 60 | 131072 | 0 |
| May 1, 2026, 08:15 | 37 | 60 | 131072 | 0 |
| May 1, 2026, 08:00 | 38 | 60 | 131072 | 0 |
| May 1, 2026, 07:45 | 38 | 60 | 131072 | 0 |
| May 1, 2026, 07:30 | 39 | 60 | 131072 | 0 |
| May 1, 2026, 07:15 | 39 | 60 | 131072 | 0 |
| May 1, 2026, 07:00 | 39 | 60 | 131072 | 0 |
| May 1, 2026, 06:45 | 39 | 60 | 131072 | 0 |
| May 1, 2026, 06:30 | 40 | 60 | 131072 | 0 |
| May 1, 2026, 06:15 | 40 | 60 | 131072 | 0 |
| May 1, 2026, 06:00 | 41 | 60 | 131072 | 0 |
| May 1, 2026, 05:45 | 42 | 60 | 131072 | 0 |
| May 1, 2026, 05:30 | 43 | 60 | 131072 | 0 |
| May 1, 2026, 05:15 | 44 | 60 | 131072 | 0 |
| May 1, 2026, 05:00 | 46 | 60 | 131072 | 0 |
| May 1, 2026, 04:45 | 46 | 60 | 131072 | 0 |
| May 1, 2026, 04:30 | 46 | 60 | 131072 | 0 |
| May 1, 2026, 04:15 | 47 | 60 | 131072 | 0 |
| May 1, 2026, 04:00 | 47 | 60 | 131072 | 0 |
| May 1, 2026, 03:45 | 47 | 60 | 131072 | 0 |
| May 1, 2026, 03:30 | 47 | 60 | 131072 | 0 |
| May 1, 2026, 03:15 | 48 | 60 | 131072 | 0 |
| May 1, 2026, 03:00 | 49 | 60 | 131072 | 0 |
| May 1, 2026, 02:45 | 49 | 60 | 131072 | 0 |
| May 1, 2026, 02:30 | 50 | 60 | 131072 | 0 |
| May 1, 2026, 02:15 | 50 | 60 | 131072 | 0 |
| May 1, 2026, 02:00 | 50 | 60 | 131072 | 0 |
| May 1, 2026, 01:45 | 50 | 60 | 131072 | 0 |
| May 1, 2026, 01:30 | 50 | 60 | 131072 | 0 |
| May 1, 2026, 01:15 | 51 | 60 | 131072 | 0 |
| May 1, 2026, 01:00 | 51 | 60 | 131072 | 0 |
| May 1, 2026, 00:45 | 51 | 60 | 131072 | 0 |
| May 1, 2026, 00:30 | 52 | 60 | 131072 | 0 |
| May 1, 2026, 00:15 | 52 | 60 | 131072 | 0 |
| April 30, 2026, 24:00 | 53 | 61 | 131072 | 0 |
| April 30, 2026, 23:45 | 53 | 61 | 131072 | 0 |
| April 30, 2026, 23:30 | 53 | 61 | 131072 | 0 |
| April 30, 2026, 23:15 | 55 | 61 | 131072 | 0 |
| April 30, 2026, 23:00 | 54 | 61 | 131072 | 0 |
| April 30, 2026, 22:45 | 55 | 61 | 131072 | 0 |
| April 30, 2026, 22:30 | 56 | 61 | 131072 | 0 |
| April 30, 2026, 22:15 | 54 | 61 | 131072 | 0 |
| April 30, 2026, 22:00 | 55 | 61 | 131072 | 0 |
| April 30, 2026, 21:45 | 55 | 61 | 131072 | 0 |
| April 30, 2026, 21:30 | 56 | 61 | 131072 | 0 |
| April 30, 2026, 21:15 | 55 | 61 | 131072 | 0 |
| April 30, 2026, 21:00 | 55 | 61 | 131072 | 0 |
| April 30, 2026, 20:45 | 55 | 61 | 131072 | 0 |
| April 30, 2026, 20:30 | 55 | 61 | 131072 | 0 |
| April 30, 2026, 20:15 | 54 | 61 | 131072 | 0 |
| April 30, 2026, 20:00 | 54 | 61 | 131072 | 0 |
| April 30, 2026, 19:45 | 54 | 61 | 131072 | 0 |
| April 30, 2026, 19:30 | 54 | 61 | 131072 | 0 |
| April 30, 2026, 19:15 | 54 | 61 | 131072 | 0 |
| April 30, 2026, 19:00 | 54 | 61 | 131072 | 0 |
| April 30, 2026, 18:45 | 55 | 61 | 131072 | 0 |
| April 30, 2026, 18:30 | 56 | 61 | 131072 | 0 |
| April 30, 2026, 18:15 | 56 | 61 | 131072 | 0 |
| April 30, 2026, 18:00 | 56 | 61 | 131072 | 0 |
| April 30, 2026, 17:45 | 54 | 61 | 131072 | 0 |
| April 30, 2026, 17:30 | 54 | 61 | 131072 | 0 |
| April 30, 2026, 17:15 | 53 | 61 | 131072 | 0 |
| April 30, 2026, 17:00 | 52 | 61 | 131072 | 0 |
| April 30, 2026, 16:45 | 52 | 61 | 131072 | 0 |
| April 30, 2026, 16:30 | 51 | 61 | 131072 | 0 |
| April 30, 2026, 16:15 | 49 | 61 | 131072 | 0 |
| April 30, 2026, 16:00 | 49 | 61 | 131072 | 0 |
| April 30, 2026, 15:45 | 49 | 61 | 131072 | 0 |
| April 30, 2026, 15:30 | 49 | 61 | 131072 | 0 |
| April 30, 2026, 15:15 | 48 | 61 | 131072 | 0 |
| April 30, 2026, 15:00 | 48 | 61 | 131072 | 0 |
| April 30, 2026, 14:45 | 47 | 61 | 131072 | 0 |
| April 30, 2026, 14:30 | 47 | 61 | 131072 | 0 |
| April 30, 2026, 14:15 | 46 | 61 | 131072 | 0 |
| April 30, 2026, 14:00 | 46 | 61 | 131072 | 0 |
| April 30, 2026, 13:45 | 46 | 61 | 131072 | 0 |
| April 30, 2026, 13:30 | 46 | 61 | 131072 | 0 |
| April 30, 2026, 13:15 | 46 | 61 | 131072 | 0 |
| April 30, 2026, 13:00 | 45 | 61 | 131072 | 0 |
| April 30, 2026, 12:45 | 45 | 61 | 131072 | 0 |
| April 30, 2026, 12:30 | 45 | 61 | 131072 | 0 |
| April 30, 2026, 12:15 | 44 | 61 | 131072 | 0 |
| April 30, 2026, 12:00 | 44 | 61 | 131072 | 0 |
| April 30, 2026, 11:45 | 43 | 61 | 131072 | 0 |
| April 30, 2026, 11:30 | 43 | 61 | 131072 | 0 |
| April 30, 2026, 11:15 | 43 | 61 | 131072 | 0 |
| April 30, 2026, 11:00 | 42 | 61 | 131072 | 0 |
| April 30, 2026, 10:45 | 43 | 61 | 131072 | 0 |
| April 30, 2026, 10:30 | 42 | 61 | 131072 | 0 |